<?xml version='1.0' encoding='UTF-8'?><gpx version="1.1" creator="JPX - https://github.com/jenetics/jpx" xmlns="http://www.topografix.com/GPX/1/1"><trk><trkseg><trkpt lat="43.3976595" lon="11.1286465"><ele>177.0</ele><time>2026-04-11T08:44:19.118Z</time></trkpt><trkpt lat="43.397663" lon="11.1285365"><ele>177.0</ele><time>2026-04-11T08:44:21.118Z</time></trkpt><trkpt lat="43.397659" lon="11.1283882"><ele>177.0</ele><time>2026-04-11T08:44:23.118Z</time></trkpt><trkpt lat="43.3976697" lon="11.1282192"><ele>177.0</ele><time>2026-04-11T08:44:25.117Z</time></trkpt><trkpt lat="43.3976718" lon="11.1281146"><ele>177.0</ele><time>2026-04-11T08:44:26.118Z</time></trkpt><trkpt lat="43.39767" lon="11.1279845"><ele>177.39999999999998</ele><time>2026-04-11T08:44:27.119Z</time></trkpt><trkpt lat="43.3976629" lon="11.1278629"><ele>177.79999999999998</ele><time>2026-04-11T08:44:28.118Z</time></trkpt><trkpt lat="43.3976521" lon="11.127736"><ele>178.2</ele><time>2026-04-11T08:44:29.119Z</time></trkpt><trkpt lat="43.3976378" lon="11.1276005"><ele>178.6</ele><time>2026-04-11T08:44:30.118Z</time></trkpt><trkpt lat="43.397619" lon="11.1274623"><ele>179.0</ele><time>2026-04-11T08:44:31.118Z</time></trkpt><trkpt lat="43.3975902" lon="11.1273281"><ele>179.0</ele><time>2026-04-11T08:44:32.118Z</time></trkpt><trkpt lat="43.3975488" lon="11.1271918"><ele>179.0</ele><time>2026-04-11T08:44:33.118Z</time></trkpt><trkpt lat="43.3974945" lon="11.127051"><ele>179.0</ele><time>2026-04-11T08:44:34.119Z</time></trkpt><trkpt lat="43.3974364" lon="11.126908"><ele>179.0</ele><time>2026-04-11T08:44:35.118Z</time></trkpt><trkpt lat="43.3973801" lon="11.126777"><ele>179.0</ele><time>2026-04-11T08:44:36.118Z</time></trkpt><trkpt lat="43.397323" lon="11.1266444"><ele>179.0</ele><time>2026-04-11T08:44:37.117Z</time></trkpt><trkpt lat="43.3972642" lon="11.1265048"><ele>179.0</ele><time>2026-04-11T08:44:38.118Z</time></trkpt><trkpt lat="43.397203" lon="11.1263593"><ele>179.0</ele><time>2026-04-11T08:44:39.119Z</time></trkpt><trkpt lat="43.3971368" lon="11.1262121"><ele>178.5</ele><time>2026-04-11T08:44:40.118Z</time></trkpt><trkpt lat="43.397071" lon="11.126066"><ele>178.0</ele><time>2026-04-11T08:44:41.118Z</time></trkpt><trkpt lat="43.3970095" lon="11.125921"><ele>177.5</ele><time>2026-04-11T08:44:42.119Z</time></trkpt><trkpt lat="43.3969545" lon="11.1258089"><ele>177.0</ele><time>2026-04-11T08:44:43.118Z</time></trkpt><trkpt lat="43.3968865" lon="11.1256921"><ele>178.0</ele><time>2026-04-11T08:44:44.118Z</time></trkpt><trkpt lat="43.3968037" lon="11.1255798"><ele>179.0</ele><time>2026-04-11T08:44:45.119Z</time></trkpt><trkpt lat="43.3967124" lon="11.1254722"><ele>180.0</ele><time>2026-04-11T08:44:46.117Z</time></trkpt><trkpt lat="43.3966122" lon="11.12537"><ele>181.0</ele><time>2026-04-11T08:44:47.118Z</time></trkpt><trkpt lat="43.3965136" lon="11.1252584"><ele>181.0</ele><time>2026-04-11T08:44:48.118Z</time></trkpt><trkpt lat="43.3964209" lon="11.12514"><ele>181.0</ele><time>2026-04-11T08:44:49.119Z</time></trkpt><trkpt lat="43.3963149" lon="11.1250478"><ele>181.0</ele><time>2026-04-11T08:44:50.118Z</time></trkpt><trkpt lat="43.3961847" lon="11.1249946"><ele>181.0</ele><time>2026-04-11T08:44:51.118Z</time></trkpt><trkpt lat="43.3960428" lon="11.1249819"><ele>180.25</ele><time>2026-04-11T08:44:52.119Z</time></trkpt><trkpt lat="43.3959177" lon="11.1250022"><ele>179.5</ele><time>2026-04-11T08:44:53.118Z</time></trkpt><trkpt lat="43.3958052" lon="11.1250347"><ele>178.75</ele><time>2026-04-11T08:44:54.118Z</time></trkpt><trkpt lat="43.3956884" lon="11.1250542"><ele>178.0</ele><time>2026-04-11T08:44:55.119Z</time></trkpt><trkpt lat="43.3955703" lon="11.125052"><ele>177.8</ele><time>2026-04-11T08:44:56.119Z</time></trkpt><trkpt lat="43.395466" lon="11.1250228"><ele>177.60000000000002</ele><time>2026-04-11T08:44:57.118Z</time></trkpt><trkpt lat="43.3953762" lon="11.1249828"><ele>177.39999999999998</ele><time>2026-04-11T08:44:58.118Z</time></trkpt><trkpt lat="43.3953064" lon="11.1249445"><ele>177.2</ele><time>2026-04-11T08:44:59.118Z</time></trkpt><trkpt lat="43.3952383" lon="11.1248888"><ele>177.0</ele><time>2026-04-11T08:45:01.118Z</time></trkpt><trkpt lat="43.3952004" lon="11.1247399"><ele>177.0</ele><time>2026-04-11T08:45:04.12Z</time></trkpt><trkpt lat="43.3951663" lon="11.124567"><ele>177.0</ele><time>2026-04-11T08:45:06.117Z</time></trkpt><trkpt lat="43.395161" lon="11.1244515"><ele>177.0</ele><time>2026-04-11T08:45:07.118Z</time></trkpt><trkpt lat="43.3951683" lon="11.1243376"><ele>177.0</ele><time>2026-04-11T08:45:08.117Z</time></trkpt><trkpt lat="43.3951727" lon="11.1242359"><ele>177.0</ele><time>2026-04-11T08:45:09.119Z</time></trkpt><trkpt lat="43.3951723" lon="11.1241405"><ele>177.0</ele><time>2026-04-11T08:45:10.119Z</time></trkpt><trkpt lat="43.3951607" lon="11.1240356"><ele>178.2</ele><time>2026-04-11T08:45:11.117Z</time></trkpt><trkpt lat="43.3951279" lon="11.1239276"><ele>179.39999999999998</ele><time>2026-04-11T08:45:12.119Z</time></trkpt><trkpt lat="43.3950706" lon="11.1238259"><ele>180.60000000000002</ele><time>2026-04-11T08:45:13.118Z</time></trkpt><trkpt lat="43.3949956" lon="11.1237165"><ele>181.8</ele><time>2026-04-11T08:45:14.118Z</time></trkpt><trkpt lat="43.3949134" lon="11.1236071"><ele>183.0</ele><time>2026-04-11T08:45:15.118Z</time></trkpt><trkpt lat="43.3948179" lon="11.1235076"><ele>183.0</ele><time>2026-04-11T08:45:16.118Z</time></trkpt><trkpt lat="43.3947227" lon="11.1234108"><ele>183.0</ele><time>2026-04-11T08:45:17.118Z</time></trkpt><trkpt lat="43.3946324" lon="11.1233205"><ele>183.0</ele><time>2026-04-11T08:45:18.118Z</time></trkpt><trkpt lat="43.3945504" lon="11.1232141"><ele>183.0</ele><time>2026-04-11T08:45:19.119Z</time></trkpt><trkpt lat="43.3944785" lon="11.1230862"><ele>182.0</ele><time>2026-04-11T08:45:20.117Z</time></trkpt><trkpt lat="43.3944117" lon="11.1229387"><ele>181.0</ele><time>2026-04-11T08:45:21.118Z</time></trkpt><trkpt lat="43.3943444" lon="11.1227715"><ele>180.0</ele><time>2026-04-11T08:45:22.119Z</time></trkpt><trkpt lat="43.3942767" lon="11.1225977"><ele>179.0</ele><time>2026-04-11T08:45:23.118Z</time></trkpt><trkpt lat="43.3942137" lon="11.1224185"><ele>180.25</ele><time>2026-04-11T08:45:24.12Z</time></trkpt><trkpt lat="43.3941538" lon="11.1222495"><ele>181.5</ele><time>2026-04-11T08:45:25.118Z</time></trkpt><trkpt lat="43.3940957" lon="11.1220925"><ele>182.75</ele><time>2026-04-11T08:45:26.118Z</time></trkpt><trkpt lat="43.3940442" lon="11.1219352"><ele>184.0</ele><time>2026-04-11T08:45:27.119Z</time></trkpt><trkpt lat="43.3939891" lon="11.1217946"><ele>184.0</ele><time>2026-04-11T08:45:28.118Z</time></trkpt><trkpt lat="43.3939319" lon="11.1216768"><ele>184.0</ele><time>2026-04-11T08:45:29.119Z</time></trkpt><trkpt lat="43.3938768" lon="11.1215713"><ele>184.0</ele><time>2026-04-11T08:45:30.117Z</time></trkpt><trkpt lat="43.3938076" lon="11.1214738"><ele>184.0</ele><time>2026-04-11T08:45:31.118Z</time></trkpt><trkpt lat="43.3937268" lon="11.1213956"><ele>184.0</ele><time>2026-04-11T08:45:32.118Z</time></trkpt><trkpt lat="43.3936487" lon="11.1213238"><ele>183.66666666666669</ele><time>2026-04-11T08:45:33.119Z</time></trkpt><trkpt lat="43.3935882" lon="11.1212322"><ele>183.33333333333334</ele><time>2026-04-11T08:45:34.12Z</time></trkpt><trkpt lat="43.3935418" lon="11.1211314"><ele>183.0</ele><time>2026-04-11T08:45:35.117Z</time></trkpt><trkpt lat="43.3935027" lon="11.1210328"><ele>182.66666666666666</ele><time>2026-04-11T08:45:36.118Z</time></trkpt><trkpt lat="43.3934673" lon="11.1209532"><ele>182.33333333333331</ele><time>2026-04-11T08:45:37.118Z</time></trkpt><trkpt lat="43.3934318" lon="11.1208625"><ele>182.0</ele><time>2026-04-11T08:45:39.119Z</time></trkpt><trkpt lat="43.3935106" lon="11.1208616"><ele>182.0</ele><time>2026-04-11T08:45:43.119Z</time></trkpt><trkpt lat="43.3936105" lon="11.1207633"><ele>182.0</ele><time>2026-04-11T08:45:46.118Z</time></trkpt><trkpt lat="43.393695" lon="11.1206331"><ele>182.0</ele><time>2026-04-11T08:45:48.117Z</time></trkpt><trkpt lat="43.3937249" lon="11.120481"><ele>182.0</ele><time>2026-04-11T08:45:50.118Z</time></trkpt><trkpt lat="43.3936537" lon="11.120354"><ele>182.83333333333331</ele><time>2026-04-11T08:45:52.118Z</time></trkpt><trkpt lat="43.3935845" lon="11.12029"><ele>183.66666666666666</ele><time>2026-04-11T08:45:53.119Z</time></trkpt><trkpt lat="43.3935316" lon="11.1202157"><ele>184.5</ele><time>2026-04-11T08:45:54.118Z</time></trkpt><trkpt lat="43.3934891" lon="11.1201268"><ele>185.33333333333334</ele><time>2026-04-11T08:45:55.118Z</time></trkpt><trkpt lat="43.3934688" lon="11.1200438"><ele>186.16666666666669</ele><time>2026-04-11T08:45:56.117Z</time></trkpt><trkpt lat="43.3934489" lon="11.1199463"><ele>187.0</ele><time>2026-04-11T08:45:57.119Z</time></trkpt><trkpt lat="43.3934226" lon="11.1198423"><ele>188.0</ele><time>2026-04-11T08:45:58.117Z</time></trkpt><trkpt lat="43.393407" lon="11.1197339"><ele>189.0</ele><time>2026-04-11T08:45:59.119Z</time></trkpt><trkpt lat="43.3933737" lon="11.1196157"><ele>190.0</ele><time>2026-04-11T08:46:00.118Z</time></trkpt><trkpt lat="43.3933494" lon="11.1194853"><ele>191.0</ele><time>2026-04-11T08:46:01.118Z</time></trkpt><trkpt lat="43.3933336" lon="11.1193657"><ele>191.99999999999997</ele><time>2026-04-11T08:46:02.119Z</time></trkpt><trkpt lat="43.3933121" lon="11.1192502"><ele>193.0</ele><time>2026-04-11T08:46:03.117Z</time></trkpt><trkpt lat="43.3932892" lon="11.1191295"><ele>194.2</ele><time>2026-04-11T08:46:04.118Z</time></trkpt><trkpt lat="43.3932621" lon="11.1190098"><ele>195.4</ele><time>2026-04-11T08:46:05.119Z</time></trkpt><trkpt lat="43.3932436" lon="11.1188917"><ele>196.6</ele><time>2026-04-11T08:46:06.119Z</time></trkpt><trkpt lat="43.3932255" lon="11.1187793"><ele>197.79999999999998</ele><time>2026-04-11T08:46:07.119Z</time></trkpt><trkpt lat="43.3931891" lon="11.1186925"><ele>199.0</ele><time>2026-04-11T08:46:08.119Z</time></trkpt><trkpt lat="43.3930791" lon="11.1186364"><ele>198.99999999999997</ele><time>2026-04-11T08:46:10.118Z</time></trkpt><trkpt lat="43.3930116" lon="11.1186551"><ele>199.0</ele><time>2026-04-11T08:46:11.119Z</time></trkpt><trkpt lat="43.3929395" lon="11.1186878"><ele>199.0</ele><time>2026-04-11T08:46:12.119Z</time></trkpt><trkpt lat="43.3928674" lon="11.1187312"><ele>199.0</ele><time>2026-04-11T08:46:13.117Z</time></trkpt><trkpt lat="43.3928119" lon="11.1187728"><ele>198.99999999999997</ele><time>2026-04-11T08:46:14.118Z</time></trkpt><trkpt lat="43.392723" lon="11.1188326"><ele>199.0</ele><time>2026-04-11T08:46:16.119Z</time></trkpt><trkpt lat="43.3926331" lon="11.1187882"><ele>198.14285714285714</ele><time>2026-04-11T08:46:18.118Z</time></trkpt><trkpt lat="43.3925917" lon="11.1187226"><ele>197.28571428571428</ele><time>2026-04-11T08:46:19.119Z</time></trkpt><trkpt lat="43.3925632" lon="11.1186384"><ele>196.42857142857144</ele><time>2026-04-11T08:46:20.118Z</time></trkpt><trkpt lat="43.3925458" lon="11.1185456"><ele>195.57142857142856</ele><time>2026-04-11T08:46:21.117Z</time></trkpt><trkpt lat="43.3925487" lon="11.1184437"><ele>194.71428571428572</ele><time>2026-04-11T08:46:22.118Z</time></trkpt><trkpt lat="43.3925685" lon="11.1183351"><ele>193.85714285714286</ele><time>2026-04-11T08:46:23.118Z</time></trkpt><trkpt lat="43.3925892" lon="11.1182371"><ele>193.0</ele><time>2026-04-11T08:46:24.118Z</time></trkpt><trkpt lat="43.3925887" lon="11.1181402"><ele>193.0</ele><time>2026-04-11T08:46:25.117Z</time></trkpt><trkpt lat="43.3925703" lon="11.1180422"><ele>193.0</ele><time>2026-04-11T08:46:26.118Z</time></trkpt><trkpt lat="43.392545" lon="11.1179382"><ele>193.0</ele><time>2026-04-11T08:46:27.118Z</time></trkpt><trkpt lat="43.3925011" lon="11.1178303"><ele>193.0</ele><time>2026-04-11T08:46:28.119Z</time></trkpt><trkpt lat="43.3924452" lon="11.1177128"><ele>193.0</ele><time>2026-04-11T08:46:29.119Z</time></trkpt><trkpt lat="43.3923828" lon="11.1175756"><ele>193.0</ele><time>2026-04-11T08:46:30.119Z</time></trkpt><trkpt lat="43.3923204" lon="11.1174293"><ele>193.0</ele><time>2026-04-11T08:46:31.119Z</time></trkpt><trkpt lat="43.392251" lon="11.1172919"><ele>193.0</ele><time>2026-04-11T08:46:32.119Z</time></trkpt><trkpt lat="43.3921845" lon="11.1171558"><ele>193.0</ele><time>2026-04-11T08:46:33.119Z</time></trkpt><trkpt lat="43.3921273" lon="11.1170696"><ele>193.0</ele><time>2026-04-11T08:46:34.118Z</time></trkpt><trkpt lat="43.3921201" lon="11.1169815"><ele>194.4</ele><time>2026-04-11T08:46:35.119Z</time></trkpt><trkpt lat="43.3921107" lon="11.1168886"><ele>195.8</ele><time>2026-04-11T08:46:36.117Z</time></trkpt><trkpt lat="43.3921148" lon="11.1167353"><ele>197.2</ele><time>2026-04-11T08:46:38.118Z</time></trkpt><trkpt lat="43.3920429" lon="11.1166198"><ele>198.6</ele><time>2026-04-11T08:46:40.119Z</time></trkpt><trkpt lat="43.3919474" lon="11.1165161"><ele>200.0</ele><time>2026-04-11T08:46:42.118Z</time></trkpt><trkpt lat="43.3918964" lon="11.1164527"><ele>200.66666666666669</ele><time>2026-04-11T08:46:43.119Z</time></trkpt><trkpt lat="43.3918383" lon="11.1163778"><ele>201.33333333333334</ele><time>2026-04-11T08:46:44.118Z</time></trkpt><trkpt lat="43.3917793" lon="11.1162814"><ele>202.0</ele><time>2026-04-11T08:46:45.118Z</time></trkpt><trkpt lat="43.3917248" lon="11.1161884"><ele>202.66666666666669</ele><time>2026-04-11T08:46:46.117Z</time></trkpt><trkpt lat="43.3916658" lon="11.1160992"><ele>203.33333333333334</ele><time>2026-04-11T08:46:47.117Z</time></trkpt><trkpt lat="43.3916175" lon="11.1160135"><ele>204.0</ele><time>2026-04-11T08:46:48.117Z</time></trkpt><trkpt lat="43.3915929" lon="11.1159229"><ele>204.0</ele><time>2026-04-11T08:46:49.118Z</time></trkpt><trkpt lat="43.3915422" lon="11.1157712"><ele>204.0</ele><time>2026-04-11T08:46:51.118Z</time></trkpt><trkpt lat="43.3914905" lon="11.1157186"><ele>204.0</ele><time>2026-04-11T08:46:52.118Z</time></trkpt><trkpt lat="43.3913721" lon="11.1156861"><ele>204.0</ele><time>2026-04-11T08:46:54.117Z</time></trkpt><trkpt lat="43.391295" lon="11.115654"><ele>204.0</ele><time>2026-04-11T08:46:55.117Z</time></trkpt><trkpt lat="43.391228" lon="11.1156"><ele>205.16666666666666</ele><time>2026-04-11T08:46:56.118Z</time></trkpt><trkpt lat="43.3911685" lon="11.1155414"><ele>206.33333333333331</ele><time>2026-04-11T08:46:57.117Z</time></trkpt><trkpt lat="43.3911107" lon="11.1154731"><ele>207.5</ele><time>2026-04-11T08:46:58.118Z</time></trkpt><trkpt lat="43.3910454" lon="11.115396"><ele>208.66666666666666</ele><time>2026-04-11T08:46:59.117Z</time></trkpt><trkpt lat="43.3909844" lon="11.1153151"><ele>209.83333333333331</ele><time>2026-04-11T08:47:00.119Z</time></trkpt><trkpt lat="43.3909149" lon="11.1152394"><ele>211.0</ele><time>2026-04-11T08:47:01.119Z</time></trkpt><trkpt lat="43.3908405" lon="11.115164"><ele>210.99999999999997</ele><time>2026-04-11T08:47:02.119Z</time></trkpt><trkpt lat="43.3907618" lon="11.1150819"><ele>211.0</ele><time>2026-04-11T08:47:03.12Z</time></trkpt><trkpt lat="43.3906859" lon="11.1150061"><ele>211.0</ele><time>2026-04-11T08:47:04.12Z</time></trkpt><trkpt lat="43.3906139" lon="11.1149615"><ele>211.0</ele><time>2026-04-11T08:47:05.118Z</time></trkpt><trkpt lat="43.3905391" lon="11.114929"><ele>210.99999999999997</ele><time>2026-04-11T08:47:06.119Z</time></trkpt><trkpt lat="43.390458" lon="11.1148967"><ele>211.0</ele><time>2026-04-11T08:47:07.117Z</time></trkpt><trkpt lat="43.3903852" lon="11.1148638"><ele>211.33333333333331</ele><time>2026-04-11T08:47:08.117Z</time></trkpt><trkpt lat="43.3902985" lon="11.1147963"><ele>211.66666666666666</ele><time>2026-04-11T08:47:09.118Z</time></trkpt><trkpt lat="43.3902135" lon="11.1147563"><ele>212.0</ele><time>2026-04-11T08:47:10.118Z</time></trkpt><trkpt lat="43.3901341" lon="11.1147203"><ele>212.33333333333331</ele><time>2026-04-11T08:47:11.118Z</time></trkpt><trkpt lat="43.390061" lon="11.1146922"><ele>212.66666666666666</ele><time>2026-04-11T08:47:12.118Z</time></trkpt><trkpt lat="43.3899992" lon="11.1146581"><ele>213.0</ele><time>2026-04-11T08:47:13.118Z</time></trkpt><trkpt lat="43.3899311" lon="11.1146116"><ele>213.0</ele><time>2026-04-11T08:47:14.118Z</time></trkpt><trkpt lat="43.3898634" lon="11.1145498"><ele>213.0</ele><time>2026-04-11T08:47:15.118Z</time></trkpt><trkpt lat="43.3898086" lon="11.1144663"><ele>213.0</ele><time>2026-04-11T08:47:16.117Z</time></trkpt><trkpt lat="43.3897521" lon="11.114367"><ele>213.0</ele><time>2026-04-11T08:47:17.118Z</time></trkpt><trkpt lat="43.3897068" lon="11.1142413"><ele>213.0</ele><time>2026-04-11T08:47:18.119Z</time></trkpt><trkpt lat="43.3896582" lon="11.1141213"><ele>212.0</ele><time>2026-04-11T08:47:19.118Z</time></trkpt><trkpt lat="43.3896367" lon="11.1140134"><ele>211.0</ele><time>2026-04-11T08:47:20.118Z</time></trkpt><trkpt lat="43.3896221" lon="11.1138872"><ele>210.0</ele><time>2026-04-11T08:47:21.118Z</time></trkpt><trkpt lat="43.3896274" lon="11.1137561"><ele>209.0</ele><time>2026-04-11T08:47:22.117Z</time></trkpt><trkpt lat="43.389629" lon="11.1136312"><ele>208.0</ele><time>2026-04-11T08:47:23.117Z</time></trkpt><trkpt lat="43.3896272" lon="11.1135319"><ele>207.0</ele><time>2026-04-11T08:47:24.118Z</time></trkpt><trkpt lat="43.3896266" lon="11.1134152"><ele>207.0</ele><time>2026-04-11T08:47:25.118Z</time></trkpt><trkpt lat="43.3896163" lon="11.1132963"><ele>207.0</ele><time>2026-04-11T08:47:26.119Z</time></trkpt><trkpt lat="43.389592" lon="11.113162"><ele>207.0</ele><time>2026-04-11T08:47:27.118Z</time></trkpt><trkpt lat="43.3895785" lon="11.1130576"><ele>207.0</ele><time>2026-04-11T08:47:28.12Z</time></trkpt><trkpt lat="43.3895654" lon="11.1129583"><ele>207.0</ele><time>2026-04-11T08:47:29.118Z</time></trkpt><trkpt lat="43.3895542" lon="11.1128596"><ele>207.0</ele><time>2026-04-11T08:47:30.118Z</time></trkpt><trkpt lat="43.3895931" lon="11.112738"><ele>207.39999999999998</ele><time>2026-04-11T08:47:32.118Z</time></trkpt><trkpt lat="43.3895584" lon="11.1126612"><ele>207.79999999999998</ele><time>2026-04-11T08:47:34.119Z</time></trkpt><trkpt lat="43.389462" lon="11.112608"><ele>208.2</ele><time>2026-04-11T08:47:36.117Z</time></trkpt><trkpt lat="43.3893659" lon="11.1125401"><ele>208.6</ele><time>2026-04-11T08:47:38.117Z</time></trkpt><trkpt lat="43.3893144" lon="11.1124181"><ele>209.0</ele><time>2026-04-11T08:47:40.117Z</time></trkpt><trkpt lat="43.3892387" lon="11.112338"><ele>210.66666666666669</ele><time>2026-04-11T08:47:42.118Z</time></trkpt><trkpt lat="43.389165" lon="11.1122629"><ele>212.33333333333334</ele><time>2026-04-11T08:47:44.118Z</time></trkpt><trkpt lat="43.389133" lon="11.1121248"><ele>214.0</ele><time>2026-04-11T08:47:46.117Z</time></trkpt><trkpt lat="43.3890838" lon="11.1120591"><ele>215.66666666666669</ele><time>2026-04-11T08:47:56.118Z</time></trkpt><trkpt lat="43.389009" lon="11.11203"><ele>217.33333333333334</ele><time>2026-04-11T08:47:59.118Z</time></trkpt><trkpt lat="43.3889563" lon="11.1119538"><ele>219.0</ele><time>2026-04-11T08:48:01.118Z</time></trkpt><trkpt lat="43.3889473" lon="11.1118448"><ele>219.0</ele><time>2026-04-11T08:48:14.118Z</time></trkpt><trkpt lat="43.3890022" lon="11.1119095"><ele>219.0</ele><time>2026-04-11T08:50:03.119Z</time></trkpt><trkpt lat="43.3889566" lon="11.1118451"><ele>219.0</ele><time>2026-04-11T08:50:29.118Z</time></trkpt><trkpt lat="43.3889222" lon="11.1117593"><ele>219.0</ele><time>2026-04-11T08:51:00.118Z</time></trkpt><trkpt lat="43.3889161" lon="11.1116706"><ele>219.0</ele><time>2026-04-11T08:51:03.119Z</time></trkpt><trkpt lat="43.3889068" lon="11.1115741"><ele>219.0</ele><time>2026-04-11T08:51:05.119Z</time></trkpt><trkpt lat="43.3888905" lon="11.1114532"><ele>219.0</ele><time>2026-04-11T08:51:07.118Z</time></trkpt><trkpt lat="43.3888815" lon="11.1113165"><ele>218.5</ele><time>2026-04-11T08:51:09.118Z</time></trkpt><trkpt lat="43.3888773" lon="11.1112242"><ele>218.0</ele><time>2026-04-11T08:51:10.117Z</time></trkpt><trkpt lat="43.3888592" lon="11.1111195"><ele>217.5</ele><time>2026-04-11T08:51:11.117Z</time></trkpt><trkpt lat="43.3888352" lon="11.1110228"><ele>217.0</ele><time>2026-04-11T08:51:12.118Z</time></trkpt><trkpt lat="43.3888015" lon="11.1109174"><ele>216.5</ele><time>2026-04-11T08:51:13.117Z</time></trkpt><trkpt lat="43.3887725" lon="11.1108158"><ele>216.0</ele><time>2026-04-11T08:51:14.119Z</time></trkpt><trkpt lat="43.3887282" lon="11.1107141"><ele>215.83333333333334</ele><time>2026-04-11T08:51:15.12Z</time></trkpt><trkpt lat="43.3886841" lon="11.1106146"><ele>215.66666666666669</ele><time>2026-04-11T08:51:16.118Z</time></trkpt><trkpt lat="43.3886386" lon="11.1105258"><ele>215.5</ele><time>2026-04-11T08:51:17.12Z</time></trkpt><trkpt lat="43.3885935" lon="11.1104291"><ele>215.33333333333334</ele><time>2026-04-11T08:51:18.12Z</time></trkpt><trkpt lat="43.3885615" lon="11.110328"><ele>215.16666666666669</ele><time>2026-04-11T08:51:19.118Z</time></trkpt><trkpt lat="43.3885414" lon="11.1102389"><ele>215.0</ele><time>2026-04-11T08:51:20.119Z</time></trkpt><trkpt lat="43.3884757" lon="11.1100968"><ele>215.00000000000003</ele><time>2026-04-11T08:51:22.117Z</time></trkpt><trkpt lat="43.388423" lon="11.1100259"><ele>215.0</ele><time>2026-04-11T08:51:23.118Z</time></trkpt><trkpt lat="43.3883787" lon="11.1099413"><ele>215.0</ele><time>2026-04-11T08:51:24.119Z</time></trkpt><trkpt lat="43.3883455" lon="11.1098489"><ele>215.0</ele><time>2026-04-11T08:51:25.118Z</time></trkpt><trkpt lat="43.3883156" lon="11.1097361"><ele>215.00000000000003</ele><time>2026-04-11T08:51:26.118Z</time></trkpt><trkpt lat="43.388296" lon="11.1096242"><ele>215.0</ele><time>2026-04-11T08:51:27.118Z</time></trkpt><trkpt lat="43.3882849" lon="11.1095112"><ele>216.2</ele><time>2026-04-11T08:51:28.119Z</time></trkpt><trkpt lat="43.3882846" lon="11.1094199"><ele>217.4</ele><time>2026-04-11T08:51:29.119Z</time></trkpt><trkpt lat="43.3882579" lon="11.1092819"><ele>218.60000000000002</ele><time>2026-04-11T08:51:31.118Z</time></trkpt><trkpt lat="43.3881535" lon="11.1091652"><ele>219.8</ele><time>2026-04-11T08:51:33.118Z</time></trkpt><trkpt lat="43.3880973" lon="11.1091114"><ele>221.0</ele><time>2026-04-11T08:51:34.118Z</time></trkpt><trkpt lat="43.3880408" lon="11.1090324"><ele>220.16666666666669</ele><time>2026-04-11T08:51:35.117Z</time></trkpt><trkpt lat="43.3879883" lon="11.1089331"><ele>219.33333333333334</ele><time>2026-04-11T08:51:36.12Z</time></trkpt><trkpt lat="43.3879462" lon="11.1088386"><ele>218.5</ele><time>2026-04-11T08:51:37.117Z</time></trkpt><trkpt lat="43.3879093" lon="11.1087369"><ele>217.66666666666669</ele><time>2026-04-11T08:51:38.117Z</time></trkpt><trkpt lat="43.3878676" lon="11.1086421"><ele>216.83333333333334</ele><time>2026-04-11T08:51:39.117Z</time></trkpt><trkpt lat="43.3878199" lon="11.1085335"><ele>216.0</ele><time>2026-04-11T08:51:40.119Z</time></trkpt><trkpt lat="43.3877931" lon="11.1084408"><ele>216.0</ele><time>2026-04-11T08:51:41.117Z</time></trkpt><trkpt lat="43.3877408" lon="11.1083611"><ele>216.00000000000003</ele><time>2026-04-11T08:51:42.119Z</time></trkpt><trkpt lat="43.3876857" lon="11.108294"><ele>216.00000000000003</ele><time>2026-04-11T08:51:43.118Z</time></trkpt><trkpt lat="43.3876245" lon="11.1081542"><ele>216.0</ele><time>2026-04-11T08:51:45.119Z</time></trkpt><trkpt lat="43.3875785" lon="11.1079537"><ele>216.0</ele><time>2026-04-11T08:51:47.119Z</time></trkpt><trkpt lat="43.3875489" lon="11.1078274"><ele>216.0</ele><time>2026-04-11T08:51:48.117Z</time></trkpt><trkpt lat="43.387522" lon="11.1076903"><ele>216.0</ele><time>2026-04-11T08:51:49.117Z</time></trkpt><trkpt lat="43.3874993" lon="11.1075721"><ele>216.0</ele><time>2026-04-11T08:51:50.118Z</time></trkpt><trkpt lat="43.3874563" lon="11.1074632"><ele>216.0</ele><time>2026-04-11T08:51:51.119Z</time></trkpt><trkpt lat="43.3874034" lon="11.1073773"><ele>216.0</ele><time>2026-04-11T08:51:52.117Z</time></trkpt><trkpt lat="43.387358" lon="11.1072916"><ele>216.0</ele><time>2026-04-11T08:51:53.118Z</time></trkpt><trkpt lat="43.3873103" lon="11.107131"><ele>216.5</ele><time>2026-04-11T08:51:55.119Z</time></trkpt><trkpt lat="43.387297" lon="11.1070329"><ele>217.0</ele><time>2026-04-11T08:51:56.118Z</time></trkpt><trkpt lat="43.387293" lon="11.106935"><ele>217.5</ele><time>2026-04-11T08:51:57.119Z</time></trkpt><trkpt lat="43.387274" lon="11.1068256"><ele>218.0</ele><time>2026-04-11T08:51:58.119Z</time></trkpt><trkpt lat="43.3872487" lon="11.1067145"><ele>218.5</ele><time>2026-04-11T08:51:59.12Z</time></trkpt><trkpt lat="43.3872154" lon="11.1065862"><ele>219.0</ele><time>2026-04-11T08:52:00.12Z</time></trkpt><trkpt lat="43.3871751" lon="11.1064806"><ele>219.0</ele><time>2026-04-11T08:52:01.119Z</time></trkpt><trkpt lat="43.3871252" lon="11.1063782"><ele>219.0</ele><time>2026-04-11T08:52:02.119Z</time></trkpt><trkpt lat="43.3870598" lon="11.1062866"><ele>219.0</ele><time>2026-04-11T08:52:03.117Z</time></trkpt><trkpt lat="43.3870044" lon="11.1061921"><ele>219.0</ele><time>2026-04-11T08:52:04.118Z</time></trkpt><trkpt lat="43.3869675" lon="11.1061"><ele>219.0</ele><time>2026-04-11T08:52:05.118Z</time></trkpt><trkpt lat="43.3869465" lon="11.1059908"><ele>219.0</ele><time>2026-04-11T08:52:06.12Z</time></trkpt><trkpt lat="43.3869347" lon="11.1058805"><ele>219.0</ele><time>2026-04-11T08:52:07.117Z</time></trkpt><trkpt lat="43.3869483" lon="11.1057464"><ele>218.99999999999997</ele><time>2026-04-11T08:52:08.118Z</time></trkpt><trkpt lat="43.3869522" lon="11.1056"><ele>218.99999999999997</ele><time>2026-04-11T08:52:09.119Z</time></trkpt><trkpt lat="43.3869397" lon="11.1054468"><ele>219.0</ele><time>2026-04-11T08:52:10.118Z</time></trkpt><trkpt lat="43.3869294" lon="11.1053135"><ele>219.0</ele><time>2026-04-11T08:52:11.118Z</time></trkpt><trkpt lat="43.3869373" lon="11.1051783"><ele>220.0</ele><time>2026-04-11T08:52:12.119Z</time></trkpt><trkpt lat="43.3869549" lon="11.105044"><ele>220.99999999999997</ele><time>2026-04-11T08:52:13.118Z</time></trkpt><trkpt lat="43.386978" lon="11.1048989"><ele>221.99999999999997</ele><time>2026-04-11T08:52:14.118Z</time></trkpt><trkpt lat="43.3870085" lon="11.1047495"><ele>223.0</ele><time>2026-04-11T08:52:15.117Z</time></trkpt><trkpt lat="43.3870546" lon="11.1046213"><ele>224.0</ele><time>2026-04-11T08:52:16.117Z</time></trkpt><trkpt lat="43.3870989" lon="11.1044927"><ele>224.2</ele><time>2026-04-11T08:52:17.117Z</time></trkpt><trkpt lat="43.3871513" lon="11.1043775"><ele>224.39999999999998</ele><time>2026-04-11T08:52:18.118Z</time></trkpt><trkpt lat="43.3871851" lon="11.1042673"><ele>224.6</ele><time>2026-04-11T08:52:19.12Z</time></trkpt><trkpt lat="43.3872076" lon="11.1041417"><ele>224.8</ele><time>2026-04-11T08:52:20.118Z</time></trkpt><trkpt lat="43.3871917" lon="11.1040078"><ele>225.0</ele><time>2026-04-11T08:52:21.118Z</time></trkpt><trkpt lat="43.3871793" lon="11.1038681"><ele>225.0</ele><time>2026-04-11T08:52:22.118Z</time></trkpt><trkpt lat="43.3871517" lon="11.103716"><ele>225.0</ele><time>2026-04-11T08:52:23.12Z</time></trkpt><trkpt lat="43.3871128" lon="11.1035596"><ele>225.0</ele><time>2026-04-11T08:52:24.119Z</time></trkpt><trkpt lat="43.3870629" lon="11.1033963"><ele>225.0</ele><time>2026-04-11T08:52:25.119Z</time></trkpt><trkpt lat="43.3870007" lon="11.1032336"><ele>225.0</ele><time>2026-04-11T08:52:26.118Z</time></trkpt><trkpt lat="43.3869314" lon="11.1030843"><ele>225.0</ele><time>2026-04-11T08:52:27.118Z</time></trkpt><trkpt lat="43.3868678" lon="11.1029607"><ele>225.0</ele><time>2026-04-11T08:52:28.119Z</time></trkpt><trkpt lat="43.3868192" lon="11.1028408"><ele>225.0</ele><time>2026-04-11T08:52:29.119Z</time></trkpt><trkpt lat="43.3867759" lon="11.1027247"><ele>225.0</ele><time>2026-04-11T08:52:30.118Z</time></trkpt><trkpt lat="43.3867412" lon="11.102609"><ele>225.0</ele><time>2026-04-11T08:52:31.119Z</time></trkpt><trkpt lat="43.3867182" lon="11.102497"><ele>225.0</ele><time>2026-04-11T08:52:32.12Z</time></trkpt><trkpt lat="43.3866782" lon="11.102334"><ele>225.0</ele><time>2026-04-11T08:52:34.118Z</time></trkpt><trkpt lat="43.3866576" lon="11.1022359"><ele>225.0</ele><time>2026-04-11T08:52:35.119Z</time></trkpt><trkpt lat="43.3866396" lon="11.1021271"><ele>225.0</ele><time>2026-04-11T08:52:36.119Z</time></trkpt><trkpt lat="43.3866153" lon="11.1020172"><ele>225.0</ele><time>2026-04-11T08:52:37.12Z</time></trkpt><trkpt lat="43.3865915" lon="11.1019168"><ele>224.71428571428575</ele><time>2026-04-11T08:52:38.119Z</time></trkpt><trkpt lat="43.3865754" lon="11.1018315"><ele>224.42857142857144</ele><time>2026-04-11T08:52:39.119Z</time></trkpt><trkpt lat="43.3865723" lon="11.1017143"><ele>224.14285714285717</ele><time>2026-04-11T08:52:41.118Z</time></trkpt><trkpt lat="43.3865656" lon="11.101833"><ele>223.8571428571429</ele><time>2026-04-11T08:52:46.118Z</time></trkpt><trkpt lat="43.3865922" lon="11.1019199"><ele>223.57142857142856</ele><time>2026-04-11T08:52:47.119Z</time></trkpt><trkpt lat="43.3866112" lon="11.1020126"><ele>223.28571428571428</ele><time>2026-04-11T08:52:48.119Z</time></trkpt><trkpt lat="43.3866296" lon="11.1021072"><ele>223.0</ele><time>2026-04-11T08:52:49.118Z</time></trkpt><trkpt lat="43.3866484" lon="11.1022126"><ele>222.99999999999997</ele><time>2026-04-11T08:52:50.12Z</time></trkpt><trkpt lat="43.3866767" lon="11.1023212"><ele>223.0</ele><time>2026-04-11T08:52:51.118Z</time></trkpt><trkpt lat="43.386717" lon="11.1024519"><ele>223.0</ele><time>2026-04-11T08:52:53.118Z</time></trkpt><trkpt lat="43.3866629" lon="11.1025019"><ele>223.0</ele><time>2026-04-11T08:52:56.118Z</time></trkpt><trkpt lat="43.3865938" lon="11.1024508"><ele>222.99999999999997</ele><time>2026-04-11T08:52:58.119Z</time></trkpt><trkpt lat="43.3865037" lon="11.1024477"><ele>223.0</ele><time>2026-04-11T08:53:00.117Z</time></trkpt><trkpt lat="43.3864371" lon="11.1024543"><ele>223.33333333333331</ele><time>2026-04-11T08:53:02.119Z</time></trkpt><trkpt lat="43.3863511" lon="11.1024334"><ele>223.66666666666666</ele><time>2026-04-11T08:54:53.119Z</time></trkpt><trkpt lat="43.386287" lon="11.1023902"><ele>224.0</ele><time>2026-04-11T08:54:56.119Z</time></trkpt><trkpt lat="43.3862197" lon="11.1023775"><ele>224.33333333333331</ele><time>2026-04-11T08:55:02.12Z</time></trkpt><trkpt lat="43.3861411" lon="11.1023736"><ele>224.66666666666666</ele><time>2026-04-11T08:55:05.119Z</time></trkpt><trkpt lat="43.3861049" lon="11.1022532"><ele>225.0</ele><time>2026-04-11T08:55:09.119Z</time></trkpt><trkpt lat="43.3860571" lon="11.1021539"><ele>226.0</ele><time>2026-04-11T08:55:11.12Z</time></trkpt><trkpt lat="43.3860097" lon="11.102065"><ele>227.0</ele><time>2026-04-11T08:55:13.118Z</time></trkpt><trkpt lat="43.386007" lon="11.101972"><ele>228.0</ele><time>2026-04-11T08:55:15.117Z</time></trkpt><trkpt lat="43.3860385" lon="11.1018429"><ele>229.0</ele><time>2026-04-11T08:55:17.119Z</time></trkpt><trkpt lat="43.3860258" lon="11.1017117"><ele>230.0</ele><time>2026-04-11T08:55:19.118Z</time></trkpt><trkpt lat="43.3859862" lon="11.1016207"><ele>231.0</ele><time>2026-04-11T08:55:21.117Z</time></trkpt><trkpt lat="43.3859129" lon="11.1015968"><ele>231.0</ele><time>2026-04-11T08:55:23.118Z</time></trkpt><trkpt lat="43.3858327" lon="11.1016198"><ele>231.0</ele><time>2026-04-11T08:55:25.118Z</time></trkpt><trkpt lat="43.3857569" lon="11.101651"><ele>231.0</ele><time>2026-04-11T08:55:27.118Z</time></trkpt><trkpt lat="43.3856668" lon="11.1017058"><ele>231.0</ele><time>2026-04-11T08:55:29.118Z</time></trkpt><trkpt lat="43.3855985" lon="11.1017746"><ele>231.0</ele><time>2026-04-11T08:55:31.119Z</time></trkpt><trkpt lat="43.3855158" lon="11.101834"><ele>231.0</ele><time>2026-04-11T08:55:33.118Z</time></trkpt><trkpt lat="43.3854226" lon="11.1018551"><ele>233.4</ele><time>2026-04-11T08:55:35.118Z</time></trkpt><trkpt lat="43.3853362" lon="11.1018918"><ele>235.8</ele><time>2026-04-11T08:55:37.118Z</time></trkpt><trkpt lat="43.3852306" lon="11.1019335"><ele>238.20000000000002</ele><time>2026-04-11T08:55:39.119Z</time></trkpt><trkpt lat="43.3851289" lon="11.1019506"><ele>240.60000000000002</ele><time>2026-04-11T08:55:41.119Z</time></trkpt><trkpt lat="43.3850495" lon="11.1019815"><ele>243.0</ele><time>2026-04-11T08:55:43.119Z</time></trkpt><trkpt lat="43.3849465" lon="11.1020084"><ele>243.0</ele><time>2026-04-11T08:55:45.119Z</time></trkpt><trkpt lat="43.3848828" lon="11.1020278"><ele>243.0</ele><time>2026-04-11T08:55:46.119Z</time></trkpt><trkpt lat="43.3848217" lon="11.1020548"><ele>243.0</ele><time>2026-04-11T08:55:47.118Z</time></trkpt><trkpt lat="43.3847603" lon="11.1020762"><ele>243.0</ele><time>2026-04-11T08:55:48.12Z</time></trkpt><trkpt lat="43.3846919" lon="11.1020872"><ele>243.0</ele><time>2026-04-11T08:55:49.119Z</time></trkpt><trkpt lat="43.3846216" lon="11.1021089"><ele>243.0</ele><time>2026-04-11T08:55:50.118Z</time></trkpt><trkpt lat="43.3845473" lon="11.1021224"><ele>243.0</ele><time>2026-04-11T08:55:51.118Z</time></trkpt><trkpt lat="43.3844729" lon="11.102123"><ele>244.4</ele><time>2026-04-11T08:55:52.119Z</time></trkpt><trkpt lat="43.3844022" lon="11.1021283"><ele>245.8</ele><time>2026-04-11T08:55:53.118Z</time></trkpt><trkpt lat="43.3843008" lon="11.1020822"><ele>247.2</ele><time>2026-04-11T08:55:55.119Z</time></trkpt><trkpt lat="43.38423" lon="11.1020106"><ele>248.6</ele><time>2026-04-11T08:55:57.118Z</time></trkpt><trkpt lat="43.3841113" lon="11.1020115"><ele>250.0</ele><time>2026-04-11T08:55:59.117Z</time></trkpt><trkpt lat="43.3840429" lon="11.1020081"><ele>249.99999999999997</ele><time>2026-04-11T08:56:00.118Z</time></trkpt><trkpt lat="43.383983" lon="11.101973"><ele>250.0</ele><time>2026-04-11T08:56:01.118Z</time></trkpt><trkpt lat="43.3839159" lon="11.1019483"><ele>250.0</ele><time>2026-04-11T08:56:02.118Z</time></trkpt><trkpt lat="43.3838449" lon="11.1019405"><ele>250.0</ele><time>2026-04-11T08:56:03.118Z</time></trkpt><trkpt lat="43.3837579" lon="11.1020027"><ele>249.99999999999997</ele><time>2026-04-11T08:56:05.118Z</time></trkpt><trkpt lat="43.3837161" lon="11.1020699"><ele>250.0</ele><time>2026-04-11T08:56:06.118Z</time></trkpt><trkpt lat="43.3836196" lon="11.1021672"><ele>250.49999999999997</ele><time>2026-04-11T08:56:08.12Z</time></trkpt><trkpt lat="43.3835313" lon="11.1021746"><ele>251.0</ele><time>2026-04-11T08:56:10.118Z</time></trkpt><trkpt lat="43.3834598" lon="11.1020912"><ele>251.5</ele><time>2026-04-11T08:56:12.12Z</time></trkpt><trkpt lat="43.3834348" lon="11.1019844"><ele>252.0</ele><time>2026-04-11T08:56:14.119Z</time></trkpt><trkpt lat="43.3834161" lon="11.1018689"><ele>252.49999999999997</ele><time>2026-04-11T08:56:16.118Z</time></trkpt><trkpt lat="43.3833797" lon="11.1017792"><ele>253.0</ele><time>2026-04-11T08:56:18.118Z</time></trkpt><trkpt lat="43.3833692" lon="11.1016671"><ele>253.16666666666666</ele><time>2026-04-11T08:56:21.12Z</time></trkpt><trkpt lat="43.3833535" lon="11.1015508"><ele>253.33333333333331</ele><time>2026-04-11T08:56:24.118Z</time></trkpt><trkpt lat="43.3833197" lon="11.101413"><ele>253.5</ele><time>2026-04-11T08:56:27.118Z</time></trkpt><trkpt lat="43.3832855" lon="11.1013397"><ele>253.66666666666669</ele><time>2026-04-11T08:56:28.118Z</time></trkpt><trkpt lat="43.3832404" lon="11.1012733"><ele>253.83333333333334</ele><time>2026-04-11T08:56:29.118Z</time></trkpt><trkpt lat="43.3831873" lon="11.1012037"><ele>254.0</ele><time>2026-04-11T08:56:30.119Z</time></trkpt><trkpt lat="43.3831263" lon="11.1011307"><ele>254.00000000000003</ele><time>2026-04-11T08:56:31.117Z</time></trkpt><trkpt lat="43.3830627" lon="11.1010576"><ele>254.0</ele><time>2026-04-11T08:56:32.119Z</time></trkpt><trkpt lat="43.3829866" lon="11.1009953"><ele>254.0</ele><time>2026-04-11T08:56:33.119Z</time></trkpt><trkpt lat="43.382927" lon="11.1009301"><ele>254.0</ele><time>2026-04-11T08:56:34.119Z</time></trkpt><trkpt lat="43.3828541" lon="11.1008794"><ele>254.00000000000003</ele><time>2026-04-11T08:56:35.119Z</time></trkpt><trkpt lat="43.3827798" lon="11.1008229"><ele>254.0</ele><time>2026-04-11T08:56:36.12Z</time></trkpt><trkpt lat="43.3827175" lon="11.1007602"><ele>254.66666666666669</ele><time>2026-04-11T08:56:37.118Z</time></trkpt><trkpt lat="43.38266" lon="11.1006944"><ele>255.33333333333334</ele><time>2026-04-11T08:56:38.119Z</time></trkpt><trkpt lat="43.3826067" lon="11.100607"><ele>256.0</ele><time>2026-04-11T08:56:39.118Z</time></trkpt><trkpt lat="43.382565" lon="11.1005031"><ele>256.6666666666667</ele><time>2026-04-11T08:56:40.119Z</time></trkpt><trkpt lat="43.3825221" lon="11.1004121"><ele>257.3333333333333</ele><time>2026-04-11T08:56:41.118Z</time></trkpt><trkpt lat="43.3824597" lon="11.1003289"><ele>258.0</ele><time>2026-04-11T08:56:42.119Z</time></trkpt><trkpt lat="43.3823861" lon="11.1002639"><ele>258.0</ele><time>2026-04-11T08:56:43.118Z</time></trkpt><trkpt lat="43.3823133" lon="11.1002183"><ele>258.0</ele><time>2026-04-11T08:56:44.12Z</time></trkpt><trkpt lat="43.3822524" lon="11.1001609"><ele>258.0</ele><time>2026-04-11T08:56:45.118Z</time></trkpt><trkpt lat="43.3822075" lon="11.1000896"><ele>258.0</ele><time>2026-04-11T08:56:46.118Z</time></trkpt><trkpt lat="43.3821717" lon="11.0999604"><ele>258.0</ele><time>2026-04-11T08:56:48.118Z</time></trkpt><trkpt lat="43.3821291" lon="11.0998468"><ele>258.0</ele><time>2026-04-11T08:56:50.118Z</time></trkpt><trkpt lat="43.3820515" lon="11.0997336"><ele>258.71428571428567</ele><time>2026-04-11T08:56:52.12Z</time></trkpt><trkpt lat="43.3819962" lon="11.0996828"><ele>259.42857142857144</ele><time>2026-04-11T08:56:53.118Z</time></trkpt><trkpt lat="43.3819408" lon="11.099626"><ele>260.1428571428571</ele><time>2026-04-11T08:56:54.12Z</time></trkpt><trkpt lat="43.381888" lon="11.0995688"><ele>260.85714285714283</ele><time>2026-04-11T08:56:55.119Z</time></trkpt><trkpt lat="43.3818274" lon="11.0994968"><ele>261.57142857142856</ele><time>2026-04-11T08:56:56.119Z</time></trkpt><trkpt lat="43.3817678" lon="11.0994206"><ele>262.2857142857143</ele><time>2026-04-11T08:56:57.118Z</time></trkpt><trkpt lat="43.3817138" lon="11.0993481"><ele>263.0</ele><time>2026-04-11T08:56:58.119Z</time></trkpt><trkpt lat="43.3816526" lon="11.099294"><ele>263.0</ele><time>2026-04-11T08:56:59.119Z</time></trkpt><trkpt lat="43.3815843" lon="11.0992623"><ele>263.0</ele><time>2026-04-11T08:57:00.117Z</time></trkpt><trkpt lat="43.3815049" lon="11.0992482"><ele>263.0</ele><time>2026-04-11T08:57:01.119Z</time></trkpt><trkpt lat="43.3814232" lon="11.0992392"><ele>263.0</ele><time>2026-04-11T08:57:02.118Z</time></trkpt><trkpt lat="43.3813335" lon="11.0992225"><ele>263.0</ele><time>2026-04-11T08:57:03.12Z</time></trkpt><trkpt lat="43.381248" lon="11.0991945"><ele>263.0</ele><time>2026-04-11T08:57:04.119Z</time></trkpt><trkpt lat="43.3811598" lon="11.0991475"><ele>263.6</ele><time>2026-04-11T08:57:05.118Z</time></trkpt><trkpt lat="43.3810773" lon="11.0991028"><ele>264.20000000000005</ele><time>2026-04-11T08:57:06.118Z</time></trkpt><trkpt lat="43.3809872" lon="11.0990827"><ele>264.8</ele><time>2026-04-11T08:57:07.119Z</time></trkpt><trkpt lat="43.380896" lon="11.0990549"><ele>265.40000000000003</ele><time>2026-04-11T08:57:08.119Z</time></trkpt><trkpt lat="43.3808278" lon="11.099009"><ele>266.0</ele><time>2026-04-11T08:57:09.119Z</time></trkpt><trkpt lat="43.3807415" lon="11.0988383"><ele>266.0</ele><time>2026-04-11T08:57:11.119Z</time></trkpt><trkpt lat="43.3806762" lon="11.0987221"><ele>266.0</ele><time>2026-04-11T08:57:12.117Z</time></trkpt><trkpt lat="43.3806172" lon="11.098625"><ele>266.0</ele><time>2026-04-11T08:57:13.118Z</time></trkpt><trkpt lat="43.3805605" lon="11.0985489"><ele>266.0</ele><time>2026-04-11T08:57:14.118Z</time></trkpt><trkpt lat="43.3805081" lon="11.0984656"><ele>266.0</ele><time>2026-04-11T08:57:15.119Z</time></trkpt><trkpt lat="43.3804445" lon="11.0983848"><ele>266.0</ele><time>2026-04-11T08:57:16.118Z</time></trkpt><trkpt lat="43.380382" lon="11.0983328"><ele>265.6666666666667</ele><time>2026-04-11T08:57:17.119Z</time></trkpt><trkpt lat="43.3803167" lon="11.0982998"><ele>265.33333333333337</ele><time>2026-04-11T08:57:18.119Z</time></trkpt><trkpt lat="43.3802531" lon="11.0982597"><ele>265.0</ele><time>2026-04-11T08:57:19.119Z</time></trkpt><trkpt lat="43.3801849" lon="11.0982279"><ele>264.6666666666667</ele><time>2026-04-11T08:57:20.12Z</time></trkpt><trkpt lat="43.3801082" lon="11.0981893"><ele>264.3333333333333</ele><time>2026-04-11T08:57:21.118Z</time></trkpt><trkpt lat="43.3800267" lon="11.0981546"><ele>264.0</ele><time>2026-04-11T08:57:22.119Z</time></trkpt><trkpt lat="43.3799497" lon="11.0981181"><ele>264.0</ele><time>2026-04-11T08:57:23.118Z</time></trkpt><trkpt lat="43.3798783" lon="11.0980785"><ele>264.0</ele><time>2026-04-11T08:57:24.119Z</time></trkpt><trkpt lat="43.379807" lon="11.0980446"><ele>264.0</ele><time>2026-04-11T08:57:25.119Z</time></trkpt><trkpt lat="43.3797418" lon="11.0979982"><ele>264.0</ele><time>2026-04-11T08:57:26.119Z</time></trkpt><trkpt lat="43.3796648" lon="11.0979478"><ele>264.0</ele><time>2026-04-11T08:57:27.118Z</time></trkpt><trkpt lat="43.3795852" lon="11.097898"><ele>264.0</ele><time>2026-04-11T08:57:28.117Z</time></trkpt><trkpt lat="43.3794929" lon="11.0978475"><ele>264.0</ele><time>2026-04-11T08:57:29.119Z</time></trkpt><trkpt lat="43.3794039" lon="11.0978062"><ele>264.0</ele><time>2026-04-11T08:57:30.119Z</time></trkpt><trkpt lat="43.3793264" lon="11.0977573"><ele>264.0</ele><time>2026-04-11T08:57:31.119Z</time></trkpt><trkpt lat="43.3792515" lon="11.0976956"><ele>264.0</ele><time>2026-04-11T08:57:32.118Z</time></trkpt><trkpt lat="43.3791832" lon="11.0976182"><ele>264.0</ele><time>2026-04-11T08:57:33.118Z</time></trkpt><trkpt lat="43.3791229" lon="11.0975237"><ele>264.0</ele><time>2026-04-11T08:57:34.12Z</time></trkpt><trkpt lat="43.3790643" lon="11.0974193"><ele>264.0</ele><time>2026-04-11T08:57:35.118Z</time></trkpt><trkpt lat="43.3790055" lon="11.0973031"><ele>264.0</ele><time>2026-04-11T08:57:36.118Z</time></trkpt><trkpt lat="43.3789524" lon="11.0971743"><ele>264.0</ele><time>2026-04-11T08:57:37.119Z</time></trkpt><trkpt lat="43.3788949" lon="11.0970534"><ele>264.0</ele><time>2026-04-11T08:57:38.119Z</time></trkpt><trkpt lat="43.3788341" lon="11.0969333"><ele>264.0</ele><time>2026-04-11T08:57:39.119Z</time></trkpt><trkpt lat="43.3787677" lon="11.0968038"><ele>265.0</ele><time>2026-04-11T08:57:40.118Z</time></trkpt><trkpt lat="43.3786953" lon="11.0966604"><ele>266.0</ele><time>2026-04-11T08:57:41.118Z</time></trkpt><trkpt lat="43.3786271" lon="11.0965293"><ele>267.0</ele><time>2026-04-11T08:57:42.119Z</time></trkpt><trkpt lat="43.3785556" lon="11.0964182"><ele>268.0</ele><time>2026-04-11T08:57:43.119Z</time></trkpt><trkpt lat="43.3784971" lon="11.0963024"><ele>268.4</ele><time>2026-04-11T08:57:44.119Z</time></trkpt><trkpt lat="43.3784364" lon="11.0961891"><ele>268.8</ele><time>2026-04-11T08:57:45.119Z</time></trkpt><trkpt lat="43.3783666" lon="11.0960871"><ele>269.2</ele><time>2026-04-11T08:57:46.119Z</time></trkpt><trkpt lat="43.3782737" lon="11.0959879"><ele>269.6</ele><time>2026-04-11T08:57:47.118Z</time></trkpt><trkpt lat="43.3781742" lon="11.09589"><ele>270.0</ele><time>2026-04-11T08:57:48.119Z</time></trkpt><trkpt lat="43.3780615" lon="11.0957956"><ele>270.25</ele><time>2026-04-11T08:57:49.118Z</time></trkpt><trkpt lat="43.3779507" lon="11.0957041"><ele>270.5</ele><time>2026-04-11T08:57:50.119Z</time></trkpt><trkpt lat="43.3778396" lon="11.0956087"><ele>270.75</ele><time>2026-04-11T08:57:51.119Z</time></trkpt><trkpt lat="43.3777237" lon="11.0955015"><ele>271.0</ele><time>2026-04-11T08:57:52.118Z</time></trkpt><trkpt lat="43.3776246" lon="11.0954148"><ele>271.0</ele><time>2026-04-11T08:57:53.119Z</time></trkpt><trkpt lat="43.3775278" lon="11.0953357"><ele>271.0</ele><time>2026-04-11T08:57:54.119Z</time></trkpt><trkpt lat="43.3774431" lon="11.0952815"><ele>271.0</ele><time>2026-04-11T08:57:55.117Z</time></trkpt><trkpt lat="43.3773535" lon="11.0952478"><ele>271.0</ele><time>2026-04-11T08:57:56.118Z</time></trkpt><trkpt lat="43.377273" lon="11.0952073"><ele>271.0</ele><time>2026-04-11T08:57:57.118Z</time></trkpt><trkpt lat="43.3771998" lon="11.0951494"><ele>271.40000000000003</ele><time>2026-04-11T08:57:58.119Z</time></trkpt><trkpt lat="43.3771318" lon="11.0950701"><ele>271.8</ele><time>2026-04-11T08:57:59.117Z</time></trkpt><trkpt lat="43.3770513" lon="11.0949891"><ele>272.20000000000005</ele><time>2026-04-11T08:58:00.119Z</time></trkpt><trkpt lat="43.3769772" lon="11.0949266"><ele>272.6</ele><time>2026-04-11T08:58:01.119Z</time></trkpt><trkpt lat="43.3768978" lon="11.094848"><ele>273.0</ele><time>2026-04-11T08:58:02.119Z</time></trkpt><trkpt lat="43.3768191" lon="11.0947633"><ele>273.0</ele><time>2026-04-11T08:58:03.117Z</time></trkpt><trkpt lat="43.3767448" lon="11.0946785"><ele>273.0</ele><time>2026-04-11T08:58:04.118Z</time></trkpt><trkpt lat="43.3766756" lon="11.0946081"><ele>273.0</ele><time>2026-04-11T08:58:05.119Z</time></trkpt><trkpt lat="43.3766054" lon="11.0945526"><ele>273.0</ele><time>2026-04-11T08:58:06.119Z</time></trkpt><trkpt lat="43.3765183" lon="11.0945149"><ele>273.0</ele><time>2026-04-11T08:58:07.118Z</time></trkpt><trkpt lat="43.3764428" lon="11.0944985"><ele>273.0</ele><time>2026-04-11T08:58:08.119Z</time></trkpt><trkpt lat="43.3763678" lon="11.0944818"><ele>273.0</ele><time>2026-04-11T08:58:09.119Z</time></trkpt><trkpt lat="43.3762859" lon="11.0944696"><ele>273.0</ele><time>2026-04-11T08:58:10.119Z</time></trkpt><trkpt lat="43.3762014" lon="11.0944546"><ele>273.0</ele><time>2026-04-11T08:58:11.12Z</time></trkpt><trkpt lat="43.3761124" lon="11.0944228"><ele>273.0</ele><time>2026-04-11T08:58:12.119Z</time></trkpt><trkpt lat="43.3760168" lon="11.0943811"><ele>273.0</ele><time>2026-04-11T08:58:13.118Z</time></trkpt><trkpt lat="43.3759208" lon="11.0943578"><ele>273.0</ele><time>2026-04-11T08:58:14.118Z</time></trkpt><trkpt lat="43.3758223" lon="11.0943307"><ele>273.0</ele><time>2026-04-11T08:58:15.12Z</time></trkpt><trkpt lat="43.3757244" lon="11.0942985"><ele>273.0</ele><time>2026-04-11T08:58:16.118Z</time></trkpt><trkpt lat="43.375642" lon="11.0942724"><ele>273.0</ele><time>2026-04-11T08:58:17.119Z</time></trkpt><trkpt lat="43.3755763" lon="11.0942667"><ele>273.0</ele><time>2026-04-11T08:58:18.119Z</time></trkpt><trkpt lat="43.375511" lon="11.0942645"><ele>273.0</ele><time>2026-04-11T08:58:19.119Z</time></trkpt><trkpt lat="43.3753797" lon="11.0942329"><ele>272.8333333333333</ele><time>2026-04-11T08:58:21.118Z</time></trkpt><trkpt lat="43.3753095" lon="11.0942179"><ele>272.6666666666667</ele><time>2026-04-11T08:58:22.119Z</time></trkpt><trkpt lat="43.3751951" lon="11.0941696"><ele>272.5</ele><time>2026-04-11T08:58:24.118Z</time></trkpt><trkpt lat="43.3751294" lon="11.0941188"><ele>272.33333333333337</ele><time>2026-04-11T08:58:25.118Z</time></trkpt><trkpt lat="43.3750622" lon="11.0940593"><ele>272.1666666666667</ele><time>2026-04-11T08:58:26.119Z</time></trkpt><trkpt lat="43.3749961" lon="11.0940011"><ele>272.0</ele><time>2026-04-11T08:58:27.118Z</time></trkpt><trkpt lat="43.3749334" lon="11.0939603"><ele>272.0</ele><time>2026-04-11T08:58:28.118Z</time></trkpt><trkpt lat="43.3748285" lon="11.0939155"><ele>272.0</ele><time>2026-04-11T08:58:30.119Z</time></trkpt><trkpt lat="43.3747607" lon="11.0939012"><ele>272.0</ele><time>2026-04-11T08:58:32.119Z</time></trkpt><trkpt lat="43.374709" lon="11.0938212"><ele>272.0</ele><time>2026-04-11T08:58:34.119Z</time></trkpt><trkpt lat="43.3746868" lon="11.09374"><ele>272.0</ele><time>2026-04-11T08:58:35.119Z</time></trkpt><trkpt lat="43.3746728" lon="11.093607"><ele>272.0</ele><time>2026-04-11T08:58:36.118Z</time></trkpt><trkpt lat="43.3746611" lon="11.0934779"><ele>272.5</ele><time>2026-04-11T08:58:37.12Z</time></trkpt><trkpt lat="43.3746372" lon="11.0933183"><ele>273.0</ele><time>2026-04-11T08:58:38.118Z</time></trkpt><trkpt lat="43.3746121" lon="11.0931461"><ele>273.5</ele><time>2026-04-11T08:58:39.118Z</time></trkpt><trkpt lat="43.3745846" lon="11.0929605"><ele>274.0</ele><time>2026-04-11T08:58:40.119Z</time></trkpt><trkpt lat="43.3745555" lon="11.092764"><ele>274.0</ele><time>2026-04-11T08:58:41.118Z</time></trkpt><trkpt lat="43.3745252" lon="11.0925493"><ele>274.0</ele><time>2026-04-11T08:58:42.119Z</time></trkpt><trkpt lat="43.374494" lon="11.0923328"><ele>274.0</ele><time>2026-04-11T08:58:43.118Z</time></trkpt><trkpt lat="43.3744586" lon="11.0921027"><ele>274.0</ele><time>2026-04-11T08:58:44.119Z</time></trkpt><trkpt lat="43.3744201" lon="11.0918658"><ele>274.0</ele><time>2026-04-11T08:58:45.12Z</time></trkpt><trkpt lat="43.3743852" lon="11.0916261"><ele>274.0</ele><time>2026-04-11T08:58:46.119Z</time></trkpt><trkpt lat="43.3743528" lon="11.0914076"><ele>274.0</ele><time>2026-04-11T08:58:47.119Z</time></trkpt><trkpt lat="43.3743193" lon="11.0912035"><ele>274.0</ele><time>2026-04-11T08:58:48.118Z</time></trkpt><trkpt lat="43.3742897" lon="11.0910044"><ele>274.0</ele><time>2026-04-11T08:58:49.119Z</time></trkpt><trkpt lat="43.3742493" lon="11.0907992"><ele>273.0</ele><time>2026-04-11T08:58:50.119Z</time></trkpt><trkpt lat="43.3741988" lon="11.0906185"><ele>272.0</ele><time>2026-04-11T08:58:51.118Z</time></trkpt><trkpt lat="43.3741416" lon="11.0904557"><ele>271.0</ele><time>2026-04-11T08:58:52.118Z</time></trkpt><trkpt lat="43.3740777" lon="11.0903121"><ele>270.0</ele><time>2026-04-11T08:58:53.118Z</time></trkpt><trkpt lat="43.374006" lon="11.0901885"><ele>270.0</ele><time>2026-04-11T08:58:54.119Z</time></trkpt><trkpt lat="43.3739348" lon="11.0900762"><ele>270.0</ele><time>2026-04-11T08:58:55.118Z</time></trkpt><trkpt lat="43.3738603" lon="11.0899785"><ele>270.0</ele><time>2026-04-11T08:58:56.119Z</time></trkpt><trkpt lat="43.3737818" lon="11.0898966"><ele>270.0</ele><time>2026-04-11T08:58:57.117Z</time></trkpt><trkpt lat="43.3736903" lon="11.0898244"><ele>270.0</ele><time>2026-04-11T08:58:58.118Z</time></trkpt><trkpt lat="43.3735841" lon="11.0897569"><ele>269.5</ele><time>2026-04-11T08:58:59.12Z</time></trkpt><trkpt lat="43.3734632" lon="11.0896864"><ele>269.0</ele><time>2026-04-11T08:59:00.118Z</time></trkpt><trkpt lat="43.3733405" lon="11.0896206"><ele>268.5</ele><time>2026-04-11T08:59:01.118Z</time></trkpt><trkpt lat="43.3732254" lon="11.0895644"><ele>268.0</ele><time>2026-04-11T08:59:02.119Z</time></trkpt><trkpt lat="43.3731136" lon="11.0895082"><ele>267.8333333333333</ele><time>2026-04-11T08:59:03.119Z</time></trkpt><trkpt lat="43.3730157" lon="11.0894521"><ele>267.66666666666663</ele><time>2026-04-11T08:59:04.119Z</time></trkpt><trkpt lat="43.3729237" lon="11.0894188"><ele>267.5</ele><time>2026-04-11T08:59:05.119Z</time></trkpt><trkpt lat="43.3728497" lon="11.0893668"><ele>267.3333333333333</ele><time>2026-04-11T08:59:06.118Z</time></trkpt><trkpt lat="43.3728071" lon="11.0892947"><ele>267.1666666666667</ele><time>2026-04-11T08:59:07.119Z</time></trkpt><trkpt lat="43.3727862" lon="11.089208"><ele>267.0</ele><time>2026-04-11T08:59:08.118Z</time></trkpt><trkpt lat="43.3727724" lon="11.0890993"><ele>266.5</ele><time>2026-04-11T08:59:09.119Z</time></trkpt><trkpt lat="43.37277" lon="11.0889806"><ele>266.0</ele><time>2026-04-11T08:59:10.119Z</time></trkpt><trkpt lat="43.372766" lon="11.088856"><ele>265.5</ele><time>2026-04-11T08:59:11.118Z</time></trkpt><trkpt lat="43.3727784" lon="11.0887282"><ele>265.0</ele><time>2026-04-11T08:59:12.119Z</time></trkpt><trkpt lat="43.3728037" lon="11.0886094"><ele>264.5</ele><time>2026-04-11T08:59:13.119Z</time></trkpt><trkpt lat="43.3728498" lon="11.0885088"><ele>264.0</ele><time>2026-04-11T08:59:14.12Z</time></trkpt><trkpt lat="43.372893" lon="11.0884016"><ele>264.0</ele><time>2026-04-11T08:59:15.119Z</time></trkpt><trkpt lat="43.3729283" lon="11.0882874"><ele>264.0</ele><time>2026-04-11T08:59:16.119Z</time></trkpt><trkpt lat="43.3729438" lon="11.0881491"><ele>264.0</ele><time>2026-04-11T08:59:17.118Z</time></trkpt><trkpt lat="43.3729213" lon="11.0880057"><ele>264.0</ele><time>2026-04-11T08:59:18.118Z</time></trkpt><trkpt lat="43.3728877" lon="11.0878499"><ele>264.0</ele><time>2026-04-11T08:59:19.118Z</time></trkpt><trkpt lat="43.3728524" lon="11.0876856"><ele>263.5</ele><time>2026-04-11T08:59:20.118Z</time></trkpt><trkpt lat="43.3728057" lon="11.0875107"><ele>263.0</ele><time>2026-04-11T08:59:21.12Z</time></trkpt><trkpt lat="43.37275" lon="11.0873306"><ele>262.5</ele><time>2026-04-11T08:59:22.119Z</time></trkpt><trkpt lat="43.3727002" lon="11.0871588"><ele>262.0</ele><time>2026-04-11T08:59:23.119Z</time></trkpt><trkpt lat="43.3726587" lon="11.086993"><ele>261.5</ele><time>2026-04-11T08:59:24.12Z</time></trkpt><trkpt lat="43.3726397" lon="11.0868375"><ele>261.0</ele><time>2026-04-11T08:59:25.118Z</time></trkpt><trkpt lat="43.3726422" lon="11.0866663"><ele>260.5</ele><time>2026-04-11T08:59:26.121Z</time></trkpt><trkpt lat="43.3726546" lon="11.0864857"><ele>260.0</ele><time>2026-04-11T08:59:27.119Z</time></trkpt><trkpt lat="43.3726625" lon="11.0863044"><ele>259.6666666666667</ele><time>2026-04-11T08:59:28.12Z</time></trkpt><trkpt lat="43.3726595" lon="11.0861004"><ele>259.3333333333333</ele><time>2026-04-11T08:59:29.118Z</time></trkpt><trkpt lat="43.3726523" lon="11.0858926"><ele>259.0</ele><time>2026-04-11T08:59:30.118Z</time></trkpt><trkpt lat="43.3726511" lon="11.0856643"><ele>258.75</ele><time>2026-04-11T08:59:31.118Z</time></trkpt><trkpt lat="43.3726495" lon="11.0854436"><ele>258.5</ele><time>2026-04-11T08:59:32.119Z</time></trkpt><trkpt lat="43.3726438" lon="11.0852408"><ele>258.25</ele><time>2026-04-11T08:59:33.118Z</time></trkpt><trkpt lat="43.3726365" lon="11.08505"><ele>258.0</ele><time>2026-04-11T08:59:34.119Z</time></trkpt><trkpt lat="43.3726235" lon="11.0848629"><ele>257.5</ele><time>2026-04-11T08:59:35.119Z</time></trkpt><trkpt lat="43.3725978" lon="11.0846898"><ele>257.0</ele><time>2026-04-11T08:59:36.119Z</time></trkpt><trkpt lat="43.3725619" lon="11.0845172"><ele>256.5</ele><time>2026-04-11T08:59:37.118Z</time></trkpt><trkpt lat="43.3725122" lon="11.0843418"><ele>256.0</ele><time>2026-04-11T08:59:38.119Z</time></trkpt><trkpt lat="43.3724605" lon="11.08416"><ele>255.66666666666666</ele><time>2026-04-11T08:59:39.118Z</time></trkpt><trkpt lat="43.3724194" lon="11.0839627"><ele>255.33333333333331</ele><time>2026-04-11T08:59:40.118Z</time></trkpt><trkpt lat="43.3723841" lon="11.0837556"><ele>255.0</ele><time>2026-04-11T08:59:41.118Z</time></trkpt><trkpt lat="43.3723535" lon="11.0835432"><ele>255.0</ele><time>2026-04-11T08:59:42.12Z</time></trkpt><trkpt lat="43.3723273" lon="11.083323"><ele>255.0</ele><time>2026-04-11T08:59:43.12Z</time></trkpt><trkpt lat="43.372311" lon="11.0830973"><ele>255.0</ele><time>2026-04-11T08:59:44.119Z</time></trkpt><trkpt lat="43.3723009" lon="11.082874"><ele>255.0</ele><time>2026-04-11T08:59:45.118Z</time></trkpt><trkpt lat="43.3722916" lon="11.082663"><ele>255.0</ele><time>2026-04-11T08:59:46.119Z</time></trkpt><trkpt lat="43.3722887" lon="11.0824657"><ele>255.0</ele><time>2026-04-11T08:59:47.118Z</time></trkpt><trkpt lat="43.3722879" lon="11.082277"><ele>255.0</ele><time>2026-04-11T08:59:48.119Z</time></trkpt><trkpt lat="43.3722933" lon="11.0821124"><ele>254.6</ele><time>2026-04-11T08:59:49.119Z</time></trkpt><trkpt lat="43.3722967" lon="11.081953"><ele>254.2</ele><time>2026-04-11T08:59:50.119Z</time></trkpt><trkpt lat="43.3723172" lon="11.0818233"><ele>253.8</ele><time>2026-04-11T08:59:51.119Z</time></trkpt><trkpt lat="43.3723341" lon="11.0816896"><ele>253.4</ele><time>2026-04-11T08:59:52.119Z</time></trkpt><trkpt lat="43.372344" lon="11.0815736"><ele>253.0</ele><time>2026-04-11T08:59:53.12Z</time></trkpt><trkpt lat="43.3723396" lon="11.0814685"><ele>252.99999999999997</ele><time>2026-04-11T08:59:54.119Z</time></trkpt><trkpt lat="43.3723132" lon="11.0813739"><ele>253.0</ele><time>2026-04-11T08:59:55.119Z</time></trkpt><trkpt lat="43.372262" lon="11.0812865"><ele>253.0</ele><time>2026-04-11T08:59:56.121Z</time></trkpt><trkpt lat="43.3722016" lon="11.0812253"><ele>253.0</ele><time>2026-04-11T08:59:57.119Z</time></trkpt><trkpt lat="43.3721316" lon="11.0812027"><ele>252.99999999999997</ele><time>2026-04-11T08:59:58.118Z</time></trkpt><trkpt lat="43.3720427" lon="11.0812048"><ele>253.0</ele><time>2026-04-11T08:59:59.119Z</time></trkpt><trkpt lat="43.3719409" lon="11.0812094"><ele>253.0</ele><time>2026-04-11T09:00:00.118Z</time></trkpt><trkpt lat="43.3718351" lon="11.0812121"><ele>253.0</ele><time>2026-04-11T09:00:01.118Z</time></trkpt><trkpt lat="43.3717218" lon="11.0811999"><ele>253.0</ele><time>2026-04-11T09:00:02.119Z</time></trkpt><trkpt lat="43.3716248" lon="11.0811979"><ele>253.0</ele><time>2026-04-11T09:00:03.119Z</time></trkpt><trkpt lat="43.3715359" lon="11.0811854"><ele>253.0</ele><time>2026-04-11T09:00:04.12Z</time></trkpt><trkpt lat="43.3714569" lon="11.0811935"><ele>253.0</ele><time>2026-04-11T09:00:05.118Z</time></trkpt><trkpt lat="43.3713737" lon="11.0812189"><ele>253.0</ele><time>2026-04-11T09:00:06.119Z</time></trkpt><trkpt lat="43.3712891" lon="11.081275"><ele>253.0</ele><time>2026-04-11T09:00:07.119Z</time></trkpt><trkpt lat="43.3712007" lon="11.0813541"><ele>253.0</ele><time>2026-04-11T09:00:08.118Z</time></trkpt><trkpt lat="43.3710989" lon="11.0814428"><ele>253.0</ele><time>2026-04-11T09:00:09.119Z</time></trkpt><trkpt lat="43.3709972" lon="11.081521"><ele>253.0</ele><time>2026-04-11T09:00:10.118Z</time></trkpt><trkpt lat="43.3709025" lon="11.0815967"><ele>253.0</ele><time>2026-04-11T09:00:11.117Z</time></trkpt><trkpt lat="43.3708012" lon="11.0816607"><ele>253.0</ele><time>2026-04-11T09:00:12.118Z</time></trkpt><trkpt lat="43.3706912" lon="11.0817055"><ele>253.0</ele><time>2026-04-11T09:00:13.119Z</time></trkpt><trkpt lat="43.3705825" lon="11.0817544"><ele>253.0</ele><time>2026-04-11T09:00:14.119Z</time></trkpt><trkpt lat="43.3704634" lon="11.0818178"><ele>253.0</ele><time>2026-04-11T09:00:15.119Z</time></trkpt><trkpt lat="43.3703362" lon="11.0818877"><ele>253.0</ele><time>2026-04-11T09:00:16.119Z</time></trkpt><trkpt lat="43.3702042" lon="11.0819525"><ele>253.0</ele><time>2026-04-11T09:00:17.118Z</time></trkpt><trkpt lat="43.370069" lon="11.0820211"><ele>253.0</ele><time>2026-04-11T09:00:18.118Z</time></trkpt><trkpt lat="43.3699418" lon="11.0820899"><ele>253.0</ele><time>2026-04-11T09:00:19.119Z</time></trkpt><trkpt lat="43.3698252" lon="11.0821448"><ele>253.0</ele><time>2026-04-11T09:00:20.119Z</time></trkpt><trkpt lat="43.3697338" lon="11.0821892"><ele>253.0</ele><time>2026-04-11T09:00:21.119Z</time></trkpt><trkpt lat="43.3696563" lon="11.0822043"><ele>253.0</ele><time>2026-04-11T09:00:22.12Z</time></trkpt><trkpt lat="43.3695611" lon="11.0821108"><ele>253.4</ele><time>2026-04-11T09:00:24.118Z</time></trkpt><trkpt lat="43.3695506" lon="11.0820157"><ele>253.8</ele><time>2026-04-11T09:00:25.117Z</time></trkpt><trkpt lat="43.3695579" lon="11.0819084"><ele>254.2</ele><time>2026-04-11T09:00:26.119Z</time></trkpt><trkpt lat="43.3695629" lon="11.0817739"><ele>254.6</ele><time>2026-04-11T09:00:27.12Z</time></trkpt><trkpt lat="43.3695682" lon="11.0816367"><ele>255.0</ele><time>2026-04-11T09:00:28.119Z</time></trkpt><trkpt lat="43.3695789" lon="11.0814892"><ele>255.0</ele><time>2026-04-11T09:00:29.119Z</time></trkpt><trkpt lat="43.3695914" lon="11.0813531"><ele>255.0</ele><time>2026-04-11T09:00:30.119Z</time></trkpt><trkpt lat="43.369609" lon="11.0812275"><ele>255.0</ele><time>2026-04-11T09:00:31.118Z</time></trkpt><trkpt lat="43.3696257" lon="11.0810955"><ele>255.0</ele><time>2026-04-11T09:00:32.118Z</time></trkpt><trkpt lat="43.3696399" lon="11.0809487"><ele>255.0</ele><time>2026-04-11T09:00:33.119Z</time></trkpt><trkpt lat="43.3696542" lon="11.0807915"><ele>254.75</ele><time>2026-04-11T09:00:34.119Z</time></trkpt><trkpt lat="43.3696691" lon="11.0806171"><ele>254.5</ele><time>2026-04-11T09:00:35.118Z</time></trkpt><trkpt lat="43.3696861" lon="11.0804332"><ele>254.25</ele><time>2026-04-11T09:00:36.118Z</time></trkpt><trkpt lat="43.3697053" lon="11.0802557"><ele>254.0</ele><time>2026-04-11T09:00:37.119Z</time></trkpt><trkpt lat="43.3697273" lon="11.0800963"><ele>253.5</ele><time>2026-04-11T09:00:38.12Z</time></trkpt><trkpt lat="43.369743" lon="11.0799474"><ele>253.0</ele><time>2026-04-11T09:00:39.12Z</time></trkpt><trkpt lat="43.3697541" lon="11.0797863"><ele>252.5</ele><time>2026-04-11T09:00:40.12Z</time></trkpt><trkpt lat="43.3697638" lon="11.079624"><ele>252.0</ele><time>2026-04-11T09:00:41.119Z</time></trkpt><trkpt lat="43.3697786" lon="11.0794548"><ele>251.8</ele><time>2026-04-11T09:00:42.119Z</time></trkpt><trkpt lat="43.3697943" lon="11.0792876"><ele>251.6</ele><time>2026-04-11T09:00:43.12Z</time></trkpt><trkpt lat="43.3698106" lon="11.0791292"><ele>251.40000000000003</ele><time>2026-04-11T09:00:44.119Z</time></trkpt><trkpt lat="43.3698261" lon="11.0789921"><ele>251.20000000000002</ele><time>2026-04-11T09:00:45.119Z</time></trkpt><trkpt lat="43.3698336" lon="11.0788787"><ele>251.0</ele><time>2026-04-11T09:00:46.119Z</time></trkpt><trkpt lat="43.3698352" lon="11.0787817"><ele>250.8</ele><time>2026-04-11T09:00:47.119Z</time></trkpt><trkpt lat="43.3697657" lon="11.0786877"><ele>250.60000000000002</ele><time>2026-04-11T09:00:49.12Z</time></trkpt><trkpt lat="43.369627" lon="11.0787256"><ele>250.4</ele><time>2026-04-11T09:00:51.119Z</time></trkpt><trkpt lat="43.3695295" lon="11.0787504"><ele>250.2</ele><time>2026-04-11T09:00:52.119Z</time></trkpt><trkpt lat="43.3694216" lon="11.0787802"><ele>250.0</ele><time>2026-04-11T09:00:53.119Z</time></trkpt><trkpt lat="43.3693044" lon="11.0787952"><ele>250.75</ele><time>2026-04-11T09:00:54.119Z</time></trkpt><trkpt lat="43.3691869" lon="11.0788204"><ele>251.5</ele><time>2026-04-11T09:00:55.119Z</time></trkpt><trkpt lat="43.3690732" lon="11.0788508"><ele>252.25</ele><time>2026-04-11T09:00:56.119Z</time></trkpt><trkpt lat="43.3689442" lon="11.07887"><ele>253.0</ele><time>2026-04-11T09:00:57.119Z</time></trkpt><trkpt lat="43.3688318" lon="11.07889"><ele>253.49999999999997</ele><time>2026-04-11T09:00:58.118Z</time></trkpt><trkpt lat="43.3687344" lon="11.078896"><ele>254.0</ele><time>2026-04-11T09:00:59.119Z</time></trkpt><trkpt lat="43.3686493" lon="11.0788745"><ele>254.5</ele><time>2026-04-11T09:01:00.118Z</time></trkpt><trkpt lat="43.3685705" lon="11.078813"><ele>255.0</ele><time>2026-04-11T09:01:01.119Z</time></trkpt><trkpt lat="43.368501" lon="11.0787636"><ele>255.49999999999997</ele><time>2026-04-11T09:01:02.119Z</time></trkpt><trkpt lat="43.3684346" lon="11.0787242"><ele>256.0</ele><time>2026-04-11T09:01:03.119Z</time></trkpt><trkpt lat="43.3683509" lon="11.0786946"><ele>256.0</ele><time>2026-04-11T09:01:04.126Z</time></trkpt><trkpt lat="43.3682577" lon="11.0786695"><ele>256.0</ele><time>2026-04-11T09:01:05.118Z</time></trkpt><trkpt lat="43.3681478" lon="11.0786457"><ele>256.0</ele><time>2026-04-11T09:01:06.12Z</time></trkpt><trkpt lat="43.3680261" lon="11.0786224"><ele>256.0</ele><time>2026-04-11T09:01:07.119Z</time></trkpt><trkpt lat="43.3679091" lon="11.0786019"><ele>256.0</ele><time>2026-04-11T09:01:08.119Z</time></trkpt><trkpt lat="43.3677987" lon="11.0785806"><ele>256.66666666666663</ele><time>2026-04-11T09:01:09.118Z</time></trkpt><trkpt lat="43.3677077" lon="11.0785833"><ele>257.3333333333333</ele><time>2026-04-11T09:01:10.118Z</time></trkpt><trkpt lat="43.3676275" lon="11.0785751"><ele>258.0</ele><time>2026-04-11T09:01:11.119Z</time></trkpt><trkpt lat="43.3675572" lon="11.0785733"><ele>258.6666666666667</ele><time>2026-04-11T09:01:12.118Z</time></trkpt><trkpt lat="43.3674908" lon="11.0785663"><ele>259.33333333333337</ele><time>2026-04-11T09:01:13.119Z</time></trkpt><trkpt lat="43.3673745" lon="11.0785326"><ele>260.0</ele><time>2026-04-11T09:01:15.126Z</time></trkpt><trkpt lat="43.3672913" lon="11.0784522"><ele>260.0</ele><time>2026-04-11T09:01:17.123Z</time></trkpt><trkpt lat="43.3672223" lon="11.0784626"><ele>260.0</ele><time>2026-04-11T09:01:19.124Z</time></trkpt><trkpt lat="43.3672012" lon="11.0786267"><ele>260.0</ele><time>2026-04-11T09:01:21.119Z</time></trkpt><trkpt lat="43.367209" lon="11.078721"><ele>260.0</ele><time>2026-04-11T09:01:22.12Z</time></trkpt><trkpt lat="43.3672233" lon="11.0788076"><ele>260.0</ele><time>2026-04-11T09:01:23.12Z</time></trkpt><trkpt lat="43.3671805" lon="11.0788959"><ele>260.0</ele><time>2026-04-11T09:01:25.119Z</time></trkpt><trkpt lat="43.3670721" lon="11.0788878"><ele>260.5</ele><time>2026-04-11T09:01:33.118Z</time></trkpt><trkpt lat="43.3669594" lon="11.0788325"><ele>261.0</ele><time>2026-04-11T09:01:35.119Z</time></trkpt><trkpt lat="43.3668993" lon="11.0787799"><ele>261.5</ele><time>2026-04-11T09:01:36.119Z</time></trkpt><trkpt lat="43.3668249" lon="11.0787323"><ele>262.0</ele><time>2026-04-11T09:01:37.119Z</time></trkpt><trkpt lat="43.3667415" lon="11.0786966"><ele>262.5</ele><time>2026-04-11T09:01:38.119Z</time></trkpt><trkpt lat="43.3666699" lon="11.0786534"><ele>263.0</ele><time>2026-04-11T09:01:39.119Z</time></trkpt><trkpt lat="43.3665991" lon="11.0786203"><ele>263.0</ele><time>2026-04-11T09:01:40.12Z</time></trkpt><trkpt lat="43.3665358" lon="11.0785794"><ele>263.0</ele><time>2026-04-11T09:01:41.118Z</time></trkpt><trkpt lat="43.366437" lon="11.078528"><ele>263.0</ele><time>2026-04-11T09:01:43.119Z</time></trkpt><trkpt lat="43.3663527" lon="11.0785169"><ele>263.0</ele><time>2026-04-11T09:01:45.118Z</time></trkpt><trkpt lat="43.3662885" lon="11.0784246"><ele>263.0</ele><time>2026-04-11T09:01:47.12Z</time></trkpt><trkpt lat="43.3662093" lon="11.07829"><ele>262.8</ele><time>2026-04-11T09:01:49.12Z</time></trkpt><trkpt lat="43.3661392" lon="11.0781664"><ele>262.6</ele><time>2026-04-11T09:01:51.119Z</time></trkpt><trkpt lat="43.3661107" lon="11.078069"><ele>262.4</ele><time>2026-04-11T09:01:53.119Z</time></trkpt><trkpt lat="43.3661567" lon="11.0779457"><ele>262.2</ele><time>2026-04-11T09:01:55.119Z</time></trkpt><trkpt lat="43.3661942" lon="11.0778059"><ele>262.0</ele><time>2026-04-11T09:01:57.119Z</time></trkpt><trkpt lat="43.3661289" lon="11.0777047"><ele>262.0</ele><time>2026-04-11T09:01:59.119Z</time></trkpt><trkpt lat="43.3660744" lon="11.0776424"><ele>262.0</ele><time>2026-04-11T09:02:00.119Z</time></trkpt><trkpt lat="43.3660164" lon="11.0775745"><ele>262.0</ele><time>2026-04-11T09:02:01.119Z</time></trkpt><trkpt lat="43.3659554" lon="11.0774946"><ele>262.0</ele><time>2026-04-11T09:02:02.119Z</time></trkpt><trkpt lat="43.3658997" lon="11.0774207"><ele>262.0</ele><time>2026-04-11T09:02:03.118Z</time></trkpt><trkpt lat="43.3658366" lon="11.0773458"><ele>262.0</ele><time>2026-04-11T09:02:04.119Z</time></trkpt><trkpt lat="43.3657821" lon="11.0772708"><ele>261.8333333333333</ele><time>2026-04-11T09:02:05.12Z</time></trkpt><trkpt lat="43.3657312" lon="11.077212"><ele>261.66666666666663</ele><time>2026-04-11T09:02:06.12Z</time></trkpt><trkpt lat="43.3656811" lon="11.0771467"><ele>261.5</ele><time>2026-04-11T09:02:07.12Z</time></trkpt><trkpt lat="43.3656449" lon="11.077063"><ele>261.3333333333333</ele><time>2026-04-11T09:02:08.119Z</time></trkpt><trkpt lat="43.3655484" lon="11.0769794"><ele>261.1666666666667</ele><time>2026-04-11T09:02:10.119Z</time></trkpt><trkpt lat="43.365483" lon="11.076998"><ele>261.0</ele><time>2026-04-11T09:02:11.119Z</time></trkpt><trkpt lat="43.365422" lon="11.0770688"><ele>262.2</ele><time>2026-04-11T09:02:12.118Z</time></trkpt><trkpt lat="43.3653593" lon="11.0771424"><ele>263.40000000000003</ele><time>2026-04-11T09:02:13.119Z</time></trkpt><trkpt lat="43.3652823" lon="11.0772112"><ele>264.6</ele><time>2026-04-11T09:02:14.12Z</time></trkpt><trkpt lat="43.365198" lon="11.0772894"><ele>265.8</ele><time>2026-04-11T09:02:15.12Z</time></trkpt><trkpt lat="43.3651072" lon="11.0773664"><ele>267.0</ele><time>2026-04-11T09:02:16.119Z</time></trkpt><trkpt lat="43.3650254" lon="11.0774459"><ele>267.4</ele><time>2026-04-11T09:02:17.119Z</time></trkpt><trkpt lat="43.3649413" lon="11.0775152"><ele>267.79999999999995</ele><time>2026-04-11T09:02:18.119Z</time></trkpt><trkpt lat="43.3648599" lon="11.0775942"><ele>268.2</ele><time>2026-04-11T09:02:19.119Z</time></trkpt><trkpt lat="43.3647802" lon="11.0776686"><ele>268.59999999999997</ele><time>2026-04-11T09:02:20.118Z</time></trkpt><trkpt lat="43.364695" lon="11.0777201"><ele>269.0</ele><time>2026-04-11T09:02:21.12Z</time></trkpt><trkpt lat="43.3646015" lon="11.0777509"><ele>270.4</ele><time>2026-04-11T09:02:22.12Z</time></trkpt><trkpt lat="43.3645025" lon="11.0777682"><ele>271.79999999999995</ele><time>2026-04-11T09:02:23.121Z</time></trkpt><trkpt lat="43.3643983" lon="11.0777809"><ele>273.20000000000005</ele><time>2026-04-11T09:02:24.119Z</time></trkpt><trkpt lat="43.3642941" lon="11.0777831"><ele>274.6</ele><time>2026-04-11T09:02:25.12Z</time></trkpt><trkpt lat="43.3641851" lon="11.0777837"><ele>276.0</ele><time>2026-04-11T09:02:26.118Z</time></trkpt><trkpt lat="43.3640738" lon="11.0777781"><ele>276.0</ele><time>2026-04-11T09:02:27.119Z</time></trkpt><trkpt lat="43.3639763" lon="11.0777725"><ele>276.0</ele><time>2026-04-11T09:02:28.119Z</time></trkpt><trkpt lat="43.3638928" lon="11.0777626"><ele>276.0</ele><time>2026-04-11T09:02:29.118Z</time></trkpt><trkpt lat="43.3638235" lon="11.0777486"><ele>276.0</ele><time>2026-04-11T09:02:30.119Z</time></trkpt><trkpt lat="43.3637534" lon="11.0777563"><ele>276.0</ele><time>2026-04-11T09:02:31.118Z</time></trkpt><trkpt lat="43.3636898" lon="11.0777656"><ele>276.0</ele><time>2026-04-11T09:02:32.119Z</time></trkpt><trkpt lat="43.3635874" lon="11.0778436"><ele>276.6666666666667</ele><time>2026-04-11T09:02:34.119Z</time></trkpt><trkpt lat="43.3635136" lon="11.0779206"><ele>277.3333333333333</ele><time>2026-04-11T09:02:36.118Z</time></trkpt><trkpt lat="43.3634396" lon="11.0779022"><ele>278.0</ele><time>2026-04-11T09:02:38.119Z</time></trkpt><trkpt lat="43.3633442" lon="11.0778082"><ele>278.66666666666663</ele><time>2026-04-11T09:02:40.119Z</time></trkpt><trkpt lat="43.363293" lon="11.0777531"><ele>279.3333333333333</ele><time>2026-04-11T09:02:41.119Z</time></trkpt><trkpt lat="43.3632338" lon="11.0776739"><ele>280.0</ele><time>2026-04-11T09:02:43.118Z</time></trkpt><trkpt lat="43.363156" lon="11.077677"><ele>280.0</ele><time>2026-04-11T09:02:50.121Z</time></trkpt><trkpt lat="43.3631599" lon="11.0778039"><ele>280.0</ele><time>2026-04-11T09:02:52.118Z</time></trkpt><trkpt lat="43.3631953" lon="11.0779017"><ele>280.0</ele><time>2026-04-11T09:02:53.12Z</time></trkpt><trkpt lat="43.3632365" lon="11.0780327"><ele>280.0</ele><time>2026-04-11T09:02:54.119Z</time></trkpt><trkpt lat="43.3632729" lon="11.0781714"><ele>280.0</ele><time>2026-04-11T09:02:55.119Z</time></trkpt><trkpt lat="43.3633102" lon="11.0783348"><ele>280.0</ele><time>2026-04-11T09:02:56.119Z</time></trkpt><trkpt lat="43.3633421" lon="11.0785035"><ele>280.0</ele><time>2026-04-11T09:02:57.119Z</time></trkpt><trkpt lat="43.3633681" lon="11.0786868"><ele>280.0</ele><time>2026-04-11T09:02:58.119Z</time></trkpt><trkpt lat="43.3633893" lon="11.0788805"><ele>280.0</ele><time>2026-04-11T09:02:59.119Z</time></trkpt><trkpt lat="43.3634039" lon="11.0790859"><ele>280.5</ele><time>2026-04-11T09:03:00.119Z</time></trkpt><trkpt lat="43.3634151" lon="11.0792939"><ele>281.0</ele><time>2026-04-11T09:03:01.119Z</time></trkpt><trkpt lat="43.363425" lon="11.079501"><ele>281.5</ele><time>2026-04-11T09:03:02.12Z</time></trkpt><trkpt lat="43.3634352" lon="11.0796963"><ele>282.0</ele><time>2026-04-11T09:03:03.119Z</time></trkpt><trkpt lat="43.3634443" lon="11.0798752"><ele>281.8</ele><time>2026-04-11T09:03:04.12Z</time></trkpt><trkpt lat="43.363451" lon="11.0800386"><ele>281.6</ele><time>2026-04-11T09:03:05.119Z</time></trkpt><trkpt lat="43.3634629" lon="11.0801748"><ele>281.40000000000003</ele><time>2026-04-11T09:03:06.119Z</time></trkpt><trkpt lat="43.3634721" lon="11.0802735"><ele>281.2</ele><time>2026-04-11T09:03:07.121Z</time></trkpt><trkpt lat="43.3634212" lon="11.0803875"><ele>281.0</ele><time>2026-04-11T09:03:09.119Z</time></trkpt><trkpt lat="43.3632885" lon="11.0804622"><ele>281.0</ele><time>2026-04-11T09:03:11.118Z</time></trkpt><trkpt lat="43.363191" lon="11.0805173"><ele>281.0</ele><time>2026-04-11T09:03:12.119Z</time></trkpt><trkpt lat="43.3631031" lon="11.0805884"><ele>281.0</ele><time>2026-04-11T09:03:13.12Z</time></trkpt><trkpt lat="43.3630155" lon="11.0807029"><ele>281.0</ele><time>2026-04-11T09:03:14.12Z</time></trkpt><trkpt lat="43.3629357" lon="11.0808114"><ele>281.0</ele><time>2026-04-11T09:03:15.119Z</time></trkpt><trkpt lat="43.3628478" lon="11.0808996"><ele>281.0</ele><time>2026-04-11T09:03:16.119Z</time></trkpt><trkpt lat="43.3627636" lon="11.0809576"><ele>281.0</ele><time>2026-04-11T09:03:17.119Z</time></trkpt><trkpt lat="43.3626703" lon="11.080995"><ele>281.0</ele><time>2026-04-11T09:03:18.119Z</time></trkpt><trkpt lat="43.3625658" lon="11.0810041"><ele>281.0</ele><time>2026-04-11T09:03:19.119Z</time></trkpt><trkpt lat="43.3624429" lon="11.0810293"><ele>281.0</ele><time>2026-04-11T09:03:20.119Z</time></trkpt><trkpt lat="43.3623206" lon="11.0810554"><ele>281.0</ele><time>2026-04-11T09:03:21.119Z</time></trkpt><trkpt lat="43.3622096" lon="11.0810996"><ele>281.0</ele><time>2026-04-11T09:03:22.119Z</time></trkpt><trkpt lat="43.3621016" lon="11.081171"><ele>281.0</ele><time>2026-04-11T09:03:23.119Z</time></trkpt><trkpt lat="43.3620031" lon="11.0812656"><ele>281.0</ele><time>2026-04-11T09:03:24.118Z</time></trkpt><trkpt lat="43.3619028" lon="11.0813728"><ele>281.25</ele><time>2026-04-11T09:03:25.119Z</time></trkpt><trkpt lat="43.3618051" lon="11.081454"><ele>281.5</ele><time>2026-04-11T09:03:26.119Z</time></trkpt><trkpt lat="43.3616901" lon="11.0815238"><ele>281.75</ele><time>2026-04-11T09:03:27.118Z</time></trkpt><trkpt lat="43.3615721" lon="11.0815869"><ele>282.0</ele><time>2026-04-11T09:03:28.119Z</time></trkpt><trkpt lat="43.361468" lon="11.0816524"><ele>282.0</ele><time>2026-04-11T09:03:29.119Z</time></trkpt><trkpt lat="43.3613892" lon="11.0817264"><ele>282.0</ele><time>2026-04-11T09:03:30.119Z</time></trkpt><trkpt lat="43.3613274" lon="11.0818046"><ele>282.0</ele><time>2026-04-11T09:03:31.119Z</time></trkpt><trkpt lat="43.3612867" lon="11.0818793"><ele>282.0</ele><time>2026-04-11T09:03:32.119Z</time></trkpt><trkpt lat="43.3612351" lon="11.0819798"><ele>282.0</ele><time>2026-04-11T09:03:34.119Z</time></trkpt><trkpt lat="43.3612896" lon="11.0818902"><ele>282.0</ele><time>2026-04-11T09:03:42.119Z</time></trkpt><trkpt lat="43.3612641" lon="11.0817629"><ele>281.0</ele><time>2026-04-11T09:03:45.12Z</time></trkpt><trkpt lat="43.3612361" lon="11.0816176"><ele>280.0</ele><time>2026-04-11T09:03:47.118Z</time></trkpt><trkpt lat="43.3612155" lon="11.0814938"><ele>279.0</ele><time>2026-04-11T09:03:49.12Z</time></trkpt><trkpt lat="43.361196" lon="11.0813281"><ele>278.0</ele><time>2026-04-11T09:03:51.119Z</time></trkpt><trkpt lat="43.3611675" lon="11.0811635"><ele>277.0</ele><time>2026-04-11T09:03:53.119Z</time></trkpt><trkpt lat="43.36113" lon="11.0810384"><ele>277.0</ele><time>2026-04-11T09:03:55.118Z</time></trkpt><trkpt lat="43.3611085" lon="11.0809109"><ele>277.0</ele><time>2026-04-11T09:03:57.119Z</time></trkpt><trkpt lat="43.3610923" lon="11.0807394"><ele>277.0</ele><time>2026-04-11T09:03:59.119Z</time></trkpt><trkpt lat="43.361079" lon="11.0806305"><ele>277.0</ele><time>2026-04-11T09:04:00.118Z</time></trkpt><trkpt lat="43.3610566" lon="11.0805236"><ele>277.0</ele><time>2026-04-11T09:04:01.119Z</time></trkpt><trkpt lat="43.3610362" lon="11.0804146"><ele>277.0</ele><time>2026-04-11T09:04:02.12Z</time></trkpt><trkpt lat="43.3610232" lon="11.0803022"><ele>277.0</ele><time>2026-04-11T09:04:03.12Z</time></trkpt><trkpt lat="43.3610185" lon="11.0801793"><ele>277.0</ele><time>2026-04-11T09:04:04.119Z</time></trkpt><trkpt lat="43.3610175" lon="11.0800439"><ele>277.0</ele><time>2026-04-11T09:04:05.12Z</time></trkpt><trkpt lat="43.361019" lon="11.079925"><ele>277.0</ele><time>2026-04-11T09:04:06.119Z</time></trkpt><trkpt lat="43.3610137" lon="11.0798252"><ele>277.0</ele><time>2026-04-11T09:04:07.118Z</time></trkpt><trkpt lat="43.3610325" lon="11.0796503"><ele>277.0</ele><time>2026-04-11T09:04:09.118Z</time></trkpt><trkpt lat="43.3610376" lon="11.0795472"><ele>277.0</ele><time>2026-04-11T09:04:10.119Z</time></trkpt><trkpt lat="43.3610447" lon="11.0794557"><ele>277.0</ele><time>2026-04-11T09:04:11.119Z</time></trkpt><trkpt lat="43.3610634" lon="11.0793566"><ele>277.0</ele><time>2026-04-11T09:04:12.119Z</time></trkpt><trkpt lat="43.3611043" lon="11.0792246"><ele>277.0</ele><time>2026-04-11T09:04:14.119Z</time></trkpt><trkpt lat="43.3610848" lon="11.0790763"><ele>277.0</ele><time>2026-04-11T09:04:16.119Z</time></trkpt><trkpt lat="43.3610388" lon="11.078997"><ele>277.6</ele><time>2026-04-11T09:04:17.119Z</time></trkpt><trkpt lat="43.3609851" lon="11.0789049"><ele>278.2</ele><time>2026-04-11T09:04:18.118Z</time></trkpt><trkpt lat="43.360924" lon="11.0788068"><ele>278.8</ele><time>2026-04-11T09:04:19.12Z</time></trkpt><trkpt lat="43.360837" lon="11.0787042"><ele>279.4</ele><time>2026-04-11T09:04:20.12Z</time></trkpt><trkpt lat="43.3607662" lon="11.0786027"><ele>280.0</ele><time>2026-04-11T09:04:21.12Z</time></trkpt><trkpt lat="43.3607041" lon="11.0785185"><ele>280.0</ele><time>2026-04-11T09:04:22.119Z</time></trkpt><trkpt lat="43.3606051" lon="11.0784116"><ele>280.0</ele><time>2026-04-11T09:04:24.12Z</time></trkpt><trkpt lat="43.3604886" lon="11.0783131"><ele>280.0</ele><time>2026-04-11T09:04:26.119Z</time></trkpt><trkpt lat="43.360415" lon="11.0782577"><ele>280.0</ele><time>2026-04-11T09:04:27.12Z</time></trkpt><trkpt lat="43.3603425" lon="11.0782187"><ele>280.0</ele><time>2026-04-11T09:04:28.12Z</time></trkpt><trkpt lat="43.360277" lon="11.0781933"><ele>280.5</ele><time>2026-04-11T09:04:29.118Z</time></trkpt><trkpt lat="43.3602089" lon="11.0782099"><ele>281.0</ele><time>2026-04-11T09:04:30.119Z</time></trkpt><trkpt lat="43.3600875" lon="11.0782748"><ele>281.5</ele><time>2026-04-11T09:04:32.119Z</time></trkpt><trkpt lat="43.3600199" lon="11.0783031"><ele>282.0</ele><time>2026-04-11T09:04:33.119Z</time></trkpt><trkpt lat="43.3599505" lon="11.0783149"><ele>282.5</ele><time>2026-04-11T09:04:34.121Z</time></trkpt><trkpt lat="43.3598789" lon="11.0783198"><ele>283.0</ele><time>2026-04-11T09:04:35.12Z</time></trkpt><trkpt lat="43.3597922" lon="11.0783182"><ele>283.0</ele><time>2026-04-11T09:04:36.119Z</time></trkpt><trkpt lat="43.3597158" lon="11.078324"><ele>283.0</ele><time>2026-04-11T09:04:37.12Z</time></trkpt><trkpt lat="43.359614" lon="11.0783327"><ele>283.0</ele><time>2026-04-11T09:04:39.12Z</time></trkpt><trkpt lat="43.3595451" lon="11.0782516"><ele>283.0</ele><time>2026-04-11T09:04:41.12Z</time></trkpt><trkpt lat="43.3594755" lon="11.0781338"><ele>283.0</ele><time>2026-04-11T09:04:43.12Z</time></trkpt><trkpt lat="43.359388" lon="11.0780477"><ele>283.4</ele><time>2026-04-11T09:04:45.119Z</time></trkpt><trkpt lat="43.3593215" lon="11.0779466"><ele>283.8</ele><time>2026-04-11T09:04:47.118Z</time></trkpt><trkpt lat="43.3592358" lon="11.0778839"><ele>284.2</ele><time>2026-04-11T09:04:49.119Z</time></trkpt><trkpt lat="43.3591395" lon="11.0778291"><ele>284.6</ele><time>2026-04-11T09:04:51.119Z</time></trkpt><trkpt lat="43.3590729" lon="11.0777845"><ele>285.0</ele><time>2026-04-11T09:04:52.12Z</time></trkpt><trkpt lat="43.3590011" lon="11.0777348"><ele>285.0</ele><time>2026-04-11T09:04:53.12Z</time></trkpt><trkpt lat="43.3589295" lon="11.0776857"><ele>285.0</ele><time>2026-04-11T09:04:54.12Z</time></trkpt><trkpt lat="43.3588714" lon="11.0776453"><ele>285.0</ele><time>2026-04-11T09:04:55.119Z</time></trkpt><trkpt lat="43.3588088" lon="11.0776096"><ele>285.0</ele><time>2026-04-11T09:04:56.119Z</time></trkpt><trkpt lat="43.3587446" lon="11.0775763"><ele>285.0</ele><time>2026-04-11T09:04:57.118Z</time></trkpt><trkpt lat="43.35864" lon="11.0774998"><ele>285.0</ele><time>2026-04-11T09:04:59.12Z</time></trkpt><trkpt lat="43.3585739" lon="11.0774641"><ele>284.6</ele><time>2026-04-11T09:05:00.119Z</time></trkpt><trkpt lat="43.3585092" lon="11.0774277"><ele>284.2</ele><time>2026-04-11T09:05:01.12Z</time></trkpt><trkpt lat="43.3584165" lon="11.0773757"><ele>283.8</ele><time>2026-04-11T09:05:03.12Z</time></trkpt><trkpt lat="43.3583565" lon="11.0773319"><ele>283.4</ele><time>2026-04-11T09:05:05.119Z</time></trkpt><trkpt lat="43.3582681" lon="11.0772941"><ele>283.0</ele><time>2026-04-11T09:05:07.12Z</time></trkpt><trkpt lat="43.3581467" lon="11.0772402"><ele>283.0</ele><time>2026-04-11T09:05:09.12Z</time></trkpt><trkpt lat="43.3580854" lon="11.0772182"><ele>283.0</ele><time>2026-04-11T09:05:10.119Z</time></trkpt><trkpt lat="43.3579742" lon="11.0771985"><ele>283.0</ele><time>2026-04-11T09:05:12.118Z</time></trkpt><trkpt lat="43.3578777" lon="11.077201"><ele>283.0</ele><time>2026-04-11T09:05:14.12Z</time></trkpt><trkpt lat="43.3577587" lon="11.0772136"><ele>283.0</ele><time>2026-04-11T09:05:16.12Z</time></trkpt><trkpt lat="43.3576314" lon="11.077251"><ele>281.66666666666663</ele><time>2026-04-11T09:05:18.12Z</time></trkpt><trkpt lat="43.357548" lon="11.0772682"><ele>280.3333333333333</ele><time>2026-04-11T09:05:19.119Z</time></trkpt><trkpt lat="43.3574732" lon="11.0772898"><ele>279.0</ele><time>2026-04-11T09:05:20.123Z</time></trkpt><trkpt lat="43.3574054" lon="11.0773005"><ele>277.6666666666667</ele><time>2026-04-11T09:05:21.12Z</time></trkpt><trkpt lat="43.3573209" lon="11.0772782"><ele>276.33333333333337</ele><time>2026-04-11T09:05:23.118Z</time></trkpt><trkpt lat="43.3572455" lon="11.0771993"><ele>275.0</ele><time>2026-04-11T09:05:29.119Z</time></trkpt><trkpt lat="43.3571646" lon="11.0771459"><ele>272.0</ele><time>2026-04-11T09:05:31.118Z</time></trkpt><trkpt lat="43.3571011" lon="11.0770723"><ele>269.0</ele><time>2026-04-11T09:05:33.12Z</time></trkpt><trkpt lat="43.3570267" lon="11.0770583"><ele>266.0</ele><time>2026-04-11T09:05:35.119Z</time></trkpt><trkpt lat="43.3569562" lon="11.0770629"><ele>263.0</ele><time>2026-04-11T09:05:37.118Z</time></trkpt><trkpt lat="43.3569299" lon="11.0769766"><ele>260.0</ele><time>2026-04-11T09:05:39.119Z</time></trkpt><trkpt lat="43.3569279" lon="11.0768697"><ele>257.0</ele><time>2026-04-11T09:05:41.118Z</time></trkpt><trkpt lat="43.3569189" lon="11.0767577"><ele>257.0</ele><time>2026-04-11T09:05:43.118Z</time></trkpt><trkpt lat="43.3569045" lon="11.0766664"><ele>257.0</ele><time>2026-04-11T09:05:45.121Z</time></trkpt><trkpt lat="43.3568661" lon="11.0765534"><ele>257.0</ele><time>2026-04-11T09:05:47.121Z</time></trkpt><trkpt lat="43.3568339" lon="11.0764782"><ele>257.0</ele><time>2026-04-11T09:05:49.12Z</time></trkpt><trkpt lat="43.3567997" lon="11.076389"><ele>257.0</ele><time>2026-04-11T09:05:51.12Z</time></trkpt><trkpt lat="43.3567294" lon="11.0763196"><ele>257.0</ele><time>2026-04-11T09:05:54.12Z</time></trkpt><trkpt lat="43.3566493" lon="11.0763143"><ele>257.5</ele><time>2026-04-11T09:05:57.121Z</time></trkpt><trkpt lat="43.3565667" lon="11.0763032"><ele>258.0</ele><time>2026-04-11T09:06:00.119Z</time></trkpt><trkpt lat="43.3564885" lon="11.076346"><ele>258.5</ele><time>2026-04-11T09:06:03.119Z</time></trkpt><trkpt lat="43.35641" lon="11.0763403"><ele>259.0</ele><time>2026-04-11T09:06:13.119Z</time></trkpt><trkpt lat="43.3563402" lon="11.0763458"><ele>259.5</ele><time>2026-04-11T09:06:18.119Z</time></trkpt><trkpt lat="43.356262" lon="11.0763457"><ele>260.0</ele><time>2026-04-11T09:06:22.12Z</time></trkpt><trkpt lat="43.3561992" lon="11.0763233"><ele>258.28571428571433</ele><time>2026-04-11T09:06:25.118Z</time></trkpt><trkpt lat="43.3561283" lon="11.0762943"><ele>256.57142857142856</ele><time>2026-04-11T09:06:39.12Z</time></trkpt><trkpt lat="43.35606" lon="11.076312"><ele>254.8571428571429</ele><time>2026-04-11T09:06:50.119Z</time></trkpt><trkpt lat="43.3559869" lon="11.0763192"><ele>253.14285714285717</ele><time>2026-04-11T09:07:11.12Z</time></trkpt><trkpt lat="43.3559221" lon="11.0763131"><ele>251.42857142857144</ele><time>2026-04-11T09:07:16.119Z</time></trkpt><trkpt lat="43.3558477" lon="11.0763264"><ele>249.71428571428572</ele><time>2026-04-11T09:07:53.119Z</time></trkpt><trkpt lat="43.3558009" lon="11.0764101"><ele>248.0</ele><time>2026-04-11T09:07:56.121Z</time></trkpt><trkpt lat="43.3557623" lon="11.0765048"><ele>248.00000000000003</ele><time>2026-04-11T09:08:00.12Z</time></trkpt><trkpt lat="43.3557193" lon="11.0765913"><ele>248.0</ele><time>2026-04-11T09:08:04.121Z</time></trkpt><trkpt lat="43.355655" lon="11.0766349"><ele>248.0</ele><time>2026-04-11T09:08:08.12Z</time></trkpt><trkpt lat="43.3555841" lon="11.0766421"><ele>248.0</ele><time>2026-04-11T09:08:12.118Z</time></trkpt><trkpt lat="43.355516" lon="11.076683"><ele>248.00000000000003</ele><time>2026-04-11T09:08:22.119Z</time></trkpt><trkpt lat="43.3554619" lon="11.076746"><ele>248.0</ele><time>2026-04-11T09:08:25.119Z</time></trkpt><trkpt lat="43.3553906" lon="11.0768272"><ele>244.60000000000002</ele><time>2026-04-11T09:08:28.119Z</time></trkpt><trkpt lat="43.355326" lon="11.0769194"><ele>241.20000000000002</ele><time>2026-04-11T09:08:30.119Z</time></trkpt><trkpt lat="43.35524" lon="11.0769586"><ele>237.8</ele><time>2026-04-11T09:08:33.12Z</time></trkpt><trkpt lat="43.3551627" lon="11.076942"><ele>234.4</ele><time>2026-04-11T09:08:35.119Z</time></trkpt><trkpt lat="43.3550575" lon="11.076908"><ele>231.0</ele><time>2026-04-11T09:08:37.119Z</time></trkpt><trkpt lat="43.3549605" lon="11.0768974"><ele>231.0</ele><time>2026-04-11T09:08:39.12Z</time></trkpt><trkpt lat="43.3548957" lon="11.0769017"><ele>231.0</ele><time>2026-04-11T09:08:41.12Z</time></trkpt><trkpt lat="43.3548273" lon="11.0769275"><ele>231.0</ele><time>2026-04-11T09:08:43.12Z</time></trkpt><trkpt lat="43.3547726" lon="11.0769937"><ele>231.0</ele><time>2026-04-11T09:08:45.118Z</time></trkpt><trkpt lat="43.3547565" lon="11.0770948"><ele>231.0</ele><time>2026-04-11T09:08:47.12Z</time></trkpt><trkpt lat="43.3546702" lon="11.0771475"><ele>231.0</ele><time>2026-04-11T09:08:50.118Z</time></trkpt><trkpt lat="43.3545787" lon="11.0771881"><ele>229.8</ele><time>2026-04-11T09:08:52.119Z</time></trkpt><trkpt lat="43.3544823" lon="11.0772862"><ele>228.60000000000002</ele><time>2026-04-11T09:08:54.119Z</time></trkpt><trkpt lat="43.3544188" lon="11.077338"><ele>227.4</ele><time>2026-04-11T09:08:55.119Z</time></trkpt><trkpt lat="43.3543334" lon="11.0773711"><ele>226.2</ele><time>2026-04-11T09:08:56.12Z</time></trkpt><trkpt lat="43.3542381" lon="11.077424"><ele>225.0</ele><time>2026-04-11T09:08:57.119Z</time></trkpt><trkpt lat="43.3541459" lon="11.077473"><ele>224.16666666666666</ele><time>2026-04-11T09:08:58.12Z</time></trkpt><trkpt lat="43.3540718" lon="11.0775125"><ele>223.33333333333331</ele><time>2026-04-11T09:08:59.121Z</time></trkpt><trkpt lat="43.3540009" lon="11.0775315"><ele>222.5</ele><time>2026-04-11T09:09:00.12Z</time></trkpt><trkpt lat="43.3539348" lon="11.0775508"><ele>221.66666666666666</ele><time>2026-04-11T09:09:01.12Z</time></trkpt><trkpt lat="43.3538722" lon="11.0775657"><ele>220.83333333333331</ele><time>2026-04-11T09:09:02.119Z</time></trkpt><trkpt lat="43.3538101" lon="11.0775826"><ele>220.0</ele><time>2026-04-11T09:09:03.12Z</time></trkpt><trkpt lat="43.3536956" lon="11.0775856"><ele>219.6</ele><time>2026-04-11T09:09:05.121Z</time></trkpt><trkpt lat="43.3536123" lon="11.077598"><ele>219.2</ele><time>2026-04-11T09:09:07.118Z</time></trkpt><trkpt lat="43.3535507" lon="11.0775564"><ele>218.8</ele><time>2026-04-11T09:09:09.12Z</time></trkpt><trkpt lat="43.3534869" lon="11.0774867"><ele>218.4</ele><time>2026-04-11T09:09:11.119Z</time></trkpt><trkpt lat="43.3534046" lon="11.0773995"><ele>218.0</ele><time>2026-04-11T09:09:13.12Z</time></trkpt><trkpt lat="43.353335" lon="11.0772772"><ele>218.0</ele><time>2026-04-11T09:09:15.12Z</time></trkpt><trkpt lat="43.3532656" lon="11.0771366"><ele>218.0</ele><time>2026-04-11T09:09:17.12Z</time></trkpt><trkpt lat="43.3531996" lon="11.0770185"><ele>218.0</ele><time>2026-04-11T09:09:19.12Z</time></trkpt><trkpt lat="43.3531221" lon="11.0769509"><ele>218.0</ele><time>2026-04-11T09:09:21.119Z</time></trkpt><trkpt lat="43.3530403" lon="11.0768802"><ele>218.0</ele><time>2026-04-11T09:09:23.119Z</time></trkpt><trkpt lat="43.3529588" lon="11.0768676"><ele>217.33333333333334</ele><time>2026-04-11T09:09:25.119Z</time></trkpt><trkpt lat="43.3528855" lon="11.0768712"><ele>216.66666666666669</ele><time>2026-04-11T09:09:27.121Z</time></trkpt><trkpt lat="43.3527977" lon="11.0769143"><ele>216.0</ele><time>2026-04-11T09:09:29.12Z</time></trkpt><trkpt lat="43.352707" lon="11.0769223"><ele>215.33333333333331</ele><time>2026-04-11T09:09:31.12Z</time></trkpt><trkpt lat="43.3526416" lon="11.0769253"><ele>214.66666666666666</ele><time>2026-04-11T09:09:38.12Z</time></trkpt><trkpt lat="43.3525826" lon="11.0769715"><ele>214.0</ele><time>2026-04-11T09:09:41.12Z</time></trkpt><trkpt lat="43.3525284" lon="11.0770377"><ele>214.0</ele><time>2026-04-11T09:09:44.12Z</time></trkpt><trkpt lat="43.3524526" lon="11.0770522"><ele>213.99999999999997</ele><time>2026-04-11T09:09:47.119Z</time></trkpt><trkpt lat="43.3523805" lon="11.0771195"><ele>213.99999999999997</ele><time>2026-04-11T09:09:50.12Z</time></trkpt><trkpt lat="43.3523528" lon="11.0772407"><ele>214.0</ele><time>2026-04-11T09:09:53.12Z</time></trkpt><trkpt lat="43.3523453" lon="11.0773762"><ele>214.0</ele><time>2026-04-11T09:09:55.12Z</time></trkpt><trkpt lat="43.3523244" lon="11.0775073"><ele>213.66666666666666</ele><time>2026-04-11T09:09:57.12Z</time></trkpt><trkpt lat="43.3522867" lon="11.0776152"><ele>213.33333333333331</ele><time>2026-04-11T09:09:59.121Z</time></trkpt><trkpt lat="43.3522692" lon="11.0777154"><ele>213.0</ele><time>2026-04-11T09:10:01.121Z</time></trkpt><trkpt lat="43.3522334" lon="11.0778124"><ele>212.66666666666669</ele><time>2026-04-11T09:10:03.119Z</time></trkpt><trkpt lat="43.3521938" lon="11.0779404"><ele>212.33333333333334</ele><time>2026-04-11T09:10:05.123Z</time></trkpt><trkpt lat="43.3521744" lon="11.078079"><ele>212.0</ele><time>2026-04-11T09:10:07.119Z</time></trkpt><trkpt lat="43.3521244" lon="11.078215"><ele>213.8</ele><time>2026-04-11T09:10:09.12Z</time></trkpt><trkpt lat="43.3520117" lon="11.0782587"><ele>215.6</ele><time>2026-04-11T09:10:11.12Z</time></trkpt><trkpt lat="43.3519421" lon="11.0782467"><ele>217.40000000000003</ele><time>2026-04-11T09:10:12.12Z</time></trkpt><trkpt lat="43.351832" lon="11.0781837"><ele>219.20000000000002</ele><time>2026-04-11T09:10:14.119Z</time></trkpt><trkpt lat="43.3517238" lon="11.0781591"><ele>221.0</ele><time>2026-04-11T09:10:16.12Z</time></trkpt><trkpt lat="43.3516024" lon="11.0781504"><ele>221.0</ele><time>2026-04-11T09:10:18.118Z</time></trkpt><trkpt lat="43.3514765" lon="11.0781225"><ele>221.0</ele><time>2026-04-11T09:10:20.121Z</time></trkpt><trkpt lat="43.3513566" lon="11.0781171"><ele>221.0</ele><time>2026-04-11T09:10:22.12Z</time></trkpt><trkpt lat="43.3512489" lon="11.078135"><ele>221.0</ele><time>2026-04-11T09:10:24.12Z</time></trkpt><trkpt lat="43.3511538" lon="11.0782244"><ele>222.0</ele><time>2026-04-11T09:10:26.118Z</time></trkpt><trkpt lat="43.3511221" lon="11.0783488"><ele>223.00000000000003</ele><time>2026-04-11T09:10:28.12Z</time></trkpt><trkpt lat="43.3510861" lon="11.0784877"><ele>224.00000000000003</ele><time>2026-04-11T09:10:30.121Z</time></trkpt><trkpt lat="43.3510004" lon="11.0785979"><ele>225.0</ele><time>2026-04-11T09:10:32.12Z</time></trkpt><trkpt lat="43.3508903" lon="11.0785924"><ele>226.0</ele><time>2026-04-11T09:10:34.12Z</time></trkpt><trkpt lat="43.3508289" lon="11.0785704"><ele>225.99999999999997</ele><time>2026-04-11T09:10:36.119Z</time></trkpt><trkpt lat="43.3508133" lon="11.0786587"><ele>226.0</ele><time>2026-04-11T09:10:41.12Z</time></trkpt><trkpt lat="43.3508479" lon="11.0788141"><ele>226.0</ele><time>2026-04-11T09:10:43.119Z</time></trkpt><trkpt lat="43.3508738" lon="11.0789139"><ele>226.0</ele><time>2026-04-11T09:10:44.119Z</time></trkpt><trkpt lat="43.3509012" lon="11.0790052"><ele>225.99999999999997</ele><time>2026-04-11T09:10:45.121Z</time></trkpt><trkpt lat="43.350931" lon="11.0790922"><ele>226.0</ele><time>2026-04-11T09:10:46.121Z</time></trkpt><trkpt lat="43.350986" lon="11.0792365"><ele>225.83333333333331</ele><time>2026-04-11T09:10:48.119Z</time></trkpt><trkpt lat="43.3510369" lon="11.0793793"><ele>225.66666666666666</ele><time>2026-04-11T09:10:50.119Z</time></trkpt><trkpt lat="43.3510808" lon="11.0794729"><ele>225.5</ele><time>2026-04-11T09:10:52.12Z</time></trkpt><trkpt lat="43.3511475" lon="11.0794731"><ele>225.33333333333331</ele><time>2026-04-11T09:11:09.12Z</time></trkpt><trkpt lat="43.3512168" lon="11.0794662"><ele>225.16666666666666</ele><time>2026-04-11T09:11:12.119Z</time></trkpt><trkpt lat="43.3511445" lon="11.079471"><ele>225.0</ele><time>2026-04-11T09:11:25.12Z</time></trkpt><trkpt lat="43.3510764" lon="11.0794906"><ele>225.0</ele><time>2026-04-11T09:11:27.12Z</time></trkpt><trkpt lat="43.3510092" lon="11.0795305"><ele>225.0</ele><time>2026-04-11T09:11:29.12Z</time></trkpt><trkpt lat="43.3509543" lon="11.0795805"><ele>225.0</ele><time>2026-04-11T09:11:31.119Z</time></trkpt><trkpt lat="43.3508995" lon="11.0796421"><ele>225.0</ele><time>2026-04-11T09:11:33.12Z</time></trkpt><trkpt lat="43.350835" lon="11.079683"><ele>225.0</ele><time>2026-04-11T09:11:35.12Z</time></trkpt><trkpt lat="43.3507568" lon="11.0797138"><ele>225.0</ele><time>2026-04-11T09:11:37.119Z</time></trkpt><trkpt lat="43.3506568" lon="11.0798035"><ele>225.0</ele><time>2026-04-11T09:11:39.12Z</time></trkpt><trkpt lat="43.3505559" lon="11.0798636"><ele>225.0</ele><time>2026-04-11T09:11:41.119Z</time></trkpt><trkpt lat="43.3504531" lon="11.0799278"><ele>225.0</ele><time>2026-04-11T09:11:43.121Z</time></trkpt><trkpt lat="43.3503459" lon="11.0799935"><ele>225.0</ele><time>2026-04-11T09:11:45.121Z</time></trkpt><trkpt lat="43.3502237" lon="11.080064"><ele>223.33333333333334</ele><time>2026-04-11T09:11:47.12Z</time></trkpt><trkpt lat="43.3501372" lon="11.0800992"><ele>221.66666666666669</ele><time>2026-04-11T09:11:48.12Z</time></trkpt><trkpt lat="43.3500664" lon="11.0801373"><ele>220.0</ele><time>2026-04-11T09:11:49.119Z</time></trkpt><trkpt lat="43.3500117" lon="11.0801834"><ele>218.33333333333334</ele><time>2026-04-11T09:11:50.12Z</time></trkpt><trkpt lat="43.3499185" lon="11.0802458"><ele>216.66666666666669</ele><time>2026-04-11T09:11:52.121Z</time></trkpt><trkpt lat="43.349832" lon="11.0803036"><ele>215.0</ele><time>2026-04-11T09:11:54.12Z</time></trkpt><trkpt lat="43.3497184" lon="11.0803633"><ele>215.0</ele><time>2026-04-11T09:11:56.119Z</time></trkpt><trkpt lat="43.3496517" lon="11.0804012"><ele>215.0</ele><time>2026-04-11T09:11:57.119Z</time></trkpt><trkpt lat="43.3495455" lon="11.080463"><ele>215.0</ele><time>2026-04-11T09:11:59.12Z</time></trkpt><trkpt lat="43.3494494" lon="11.0804924"><ele>215.0</ele><time>2026-04-11T09:12:01.12Z</time></trkpt><trkpt lat="43.3493548" lon="11.0805346"><ele>215.0</ele><time>2026-04-11T09:12:03.12Z</time></trkpt><trkpt lat="43.3492603" lon="11.0806217"><ele>215.0</ele><time>2026-04-11T09:12:05.119Z</time></trkpt><trkpt lat="43.3491758" lon="11.0806798"><ele>215.0</ele><time>2026-04-11T09:12:07.12Z</time></trkpt><trkpt lat="43.3490968" lon="11.0807112"><ele>215.0</ele><time>2026-04-11T09:12:09.12Z</time></trkpt><trkpt lat="43.3489918" lon="11.0807772"><ele>215.0</ele><time>2026-04-11T09:12:11.119Z</time></trkpt><trkpt lat="43.3489013" lon="11.0808588"><ele>215.0</ele><time>2026-04-11T09:12:13.12Z</time></trkpt><trkpt lat="43.3488312" lon="11.0808446"><ele>216.8</ele><time>2026-04-11T09:12:16.119Z</time></trkpt><trkpt lat="43.3488196" lon="11.0807145"><ele>218.6</ele><time>2026-04-11T09:12:19.121Z</time></trkpt><trkpt lat="43.3488226" lon="11.0805851"><ele>220.39999999999998</ele><time>2026-04-11T09:12:21.121Z</time></trkpt><trkpt lat="43.3488085" lon="11.0804494"><ele>222.2</ele><time>2026-04-11T09:12:23.119Z</time></trkpt><trkpt lat="43.3487783" lon="11.0802506"><ele>224.0</ele><time>2026-04-11T09:12:25.119Z</time></trkpt><trkpt lat="43.3487641" lon="11.0801417"><ele>224.00000000000003</ele><time>2026-04-11T09:12:26.12Z</time></trkpt><trkpt lat="43.3487502" lon="11.0800538"><ele>224.0</ele><time>2026-04-11T09:12:27.119Z</time></trkpt><trkpt lat="43.3487263" lon="11.0799481"><ele>224.0</ele><time>2026-04-11T09:12:28.119Z</time></trkpt><trkpt lat="43.348701" lon="11.0798617"><ele>224.0</ele><time>2026-04-11T09:12:29.121Z</time></trkpt><trkpt lat="43.3486435" lon="11.079772"><ele>224.00000000000003</ele><time>2026-04-11T09:12:31.12Z</time></trkpt><trkpt lat="43.3486544" lon="11.0796388"><ele>224.0</ele><time>2026-04-11T09:12:34.119Z</time></trkpt><trkpt lat="43.3486356" lon="11.0795401"><ele>223.79999999999998</ele><time>2026-04-11T09:12:42.121Z</time></trkpt><trkpt lat="43.3485463" lon="11.0794894"><ele>223.59999999999997</ele><time>2026-04-11T09:12:44.119Z</time></trkpt><trkpt lat="43.3484529" lon="11.0794482"><ele>223.4</ele><time>2026-04-11T09:12:46.119Z</time></trkpt><trkpt lat="43.348376" lon="11.0794224"><ele>223.2</ele><time>2026-04-11T09:12:48.119Z</time></trkpt><trkpt lat="43.3482754" lon="11.0794408"><ele>223.0</ele><time>2026-04-11T09:12:50.12Z</time></trkpt><trkpt lat="43.3481625" lon="11.0794364"><ele>222.99999999999997</ele><time>2026-04-11T09:12:52.119Z</time></trkpt><trkpt lat="43.3480464" lon="11.0793485"><ele>223.0</ele><time>2026-04-11T09:12:54.119Z</time></trkpt><trkpt lat="43.3479842" lon="11.0792824"><ele>223.0</ele><time>2026-04-11T09:12:55.121Z</time></trkpt><trkpt lat="43.3479305" lon="11.0792257"><ele>223.0</ele><time>2026-04-11T09:12:57.12Z</time></trkpt><trkpt lat="43.3479288" lon="11.0793397"><ele>222.99999999999997</ele><time>2026-04-11T09:13:10.12Z</time></trkpt><trkpt lat="43.347967" lon="11.0794087"><ele>223.0</ele><time>2026-04-11T09:13:12.119Z</time></trkpt><trkpt lat="43.3480052" lon="11.0794795"><ele>223.0</ele><time>2026-04-11T09:15:09.119Z</time></trkpt><trkpt lat="43.3480145" lon="11.0795665"><ele>223.0</ele><time>2026-04-11T09:15:13.12Z</time></trkpt><trkpt lat="43.3480092" lon="11.079655"><ele>223.0</ele><time>2026-04-11T09:15:16.121Z</time></trkpt><trkpt lat="43.3480255" lon="11.0797471"><ele>223.0</ele><time>2026-04-11T09:15:19.12Z</time></trkpt><trkpt lat="43.3480499" lon="11.0798604"><ele>223.0</ele><time>2026-04-11T09:15:23.12Z</time></trkpt><trkpt lat="43.3480431" lon="11.0799676"><ele>223.0</ele><time>2026-04-11T09:15:27.12Z</time></trkpt><trkpt lat="43.3479912" lon="11.0800203"><ele>223.0</ele><time>2026-04-11T09:15:29.121Z</time></trkpt><trkpt lat="43.3479529" lon="11.0800936"><ele>223.49999999999997</ele><time>2026-04-11T09:15:33.12Z</time></trkpt><trkpt lat="43.3478893" lon="11.080166"><ele>224.0</ele><time>2026-04-11T09:15:37.12Z</time></trkpt><trkpt lat="43.347836" lon="11.0802322"><ele>224.5</ele><time>2026-04-11T09:15:39.12Z</time></trkpt><trkpt lat="43.3477795" lon="11.0803096"><ele>225.0</ele><time>2026-04-11T09:15:42.12Z</time></trkpt><trkpt lat="43.3477305" lon="11.0803882"><ele>225.49999999999997</ele><time>2026-04-11T09:15:45.12Z</time></trkpt><trkpt lat="43.3477305" lon="11.0805127"><ele>226.0</ele><time>2026-04-11T09:15:49.12Z</time></trkpt><trkpt lat="43.3477811" lon="11.0806357"><ele>225.60000000000002</ele><time>2026-04-11T09:15:51.12Z</time></trkpt><trkpt lat="43.3478391" lon="11.0807795"><ele>225.20000000000002</ele><time>2026-04-11T09:15:53.119Z</time></trkpt><trkpt lat="43.3478806" lon="11.0809032"><ele>224.79999999999998</ele><time>2026-04-11T09:15:55.121Z</time></trkpt><trkpt lat="43.3479206" lon="11.0810136"><ele>224.39999999999998</ele><time>2026-04-11T09:15:57.119Z</time></trkpt><trkpt lat="43.3479766" lon="11.081128"><ele>224.0</ele><time>2026-04-11T09:15:59.119Z</time></trkpt><trkpt lat="43.3480355" lon="11.0812781"><ele>224.00000000000003</ele><time>2026-04-11T09:16:01.12Z</time></trkpt><trkpt lat="43.3480806" lon="11.0813655"><ele>224.0</ele><time>2026-04-11T09:16:02.12Z</time></trkpt><trkpt lat="43.3481307" lon="11.0814488"><ele>224.0</ele><time>2026-04-11T09:16:03.12Z</time></trkpt><trkpt lat="43.3481804" lon="11.0815277"><ele>224.0</ele><time>2026-04-11T09:16:04.12Z</time></trkpt><trkpt lat="43.3482309" lon="11.0815999"><ele>224.00000000000003</ele><time>2026-04-11T09:16:05.12Z</time></trkpt><trkpt lat="43.3483216" lon="11.081702"><ele>224.0</ele><time>2026-04-11T09:16:07.12Z</time></trkpt><trkpt lat="43.3483958" lon="11.0817797"><ele>224.2</ele><time>2026-04-11T09:16:09.119Z</time></trkpt><trkpt lat="43.3484764" lon="11.0818424"><ele>224.39999999999998</ele><time>2026-04-11T09:16:12.12Z</time></trkpt><trkpt lat="43.3485633" lon="11.081922"><ele>224.6</ele><time>2026-04-11T09:16:14.12Z</time></trkpt><trkpt lat="43.3486352" lon="11.0820099"><ele>224.8</ele><time>2026-04-11T09:16:16.12Z</time></trkpt><trkpt lat="43.3486926" lon="11.0820511"><ele>225.0</ele><time>2026-04-11T09:16:17.121Z</time></trkpt><trkpt lat="43.3487753" lon="11.082127"><ele>225.0</ele><time>2026-04-11T09:16:19.119Z</time></trkpt><trkpt lat="43.3488152" lon="11.082197"><ele>225.0</ele><time>2026-04-11T09:16:21.12Z</time></trkpt><trkpt lat="43.3488349" lon="11.082328"><ele>225.0</ele><time>2026-04-11T09:16:23.119Z</time></trkpt><trkpt lat="43.3487822" lon="11.0824573"><ele>225.0</ele><time>2026-04-11T09:16:25.12Z</time></trkpt><trkpt lat="43.3487088" lon="11.082552"><ele>225.0</ele><time>2026-04-11T09:16:26.124Z</time></trkpt><trkpt lat="43.3486419" lon="11.0826436"><ele>225.0</ele><time>2026-04-11T09:16:27.12Z</time></trkpt><trkpt lat="43.3485866" lon="11.0827337"><ele>225.0</ele><time>2026-04-11T09:16:28.12Z</time></trkpt><trkpt lat="43.3485336" lon="11.0828102"><ele>225.0</ele><time>2026-04-11T09:16:29.12Z</time></trkpt><trkpt lat="43.3484812" lon="11.082884"><ele>225.0</ele><time>2026-04-11T09:16:30.119Z</time></trkpt><trkpt lat="43.3484395" lon="11.0829557"><ele>225.0</ele><time>2026-04-11T09:16:31.121Z</time></trkpt><trkpt lat="43.3484024" lon="11.0830304"><ele>225.0</ele><time>2026-04-11T09:16:32.12Z</time></trkpt><trkpt lat="43.3483782" lon="11.0832156"><ele>223.6</ele><time>2026-04-11T09:16:34.119Z</time></trkpt><trkpt lat="43.3483816" lon="11.0833293"><ele>222.2</ele><time>2026-04-11T09:16:35.119Z</time></trkpt><trkpt lat="43.3483958" lon="11.0834474"><ele>220.8</ele><time>2026-04-11T09:16:36.121Z</time></trkpt><trkpt lat="43.3484277" lon="11.0835988"><ele>219.4</ele><time>2026-04-11T09:16:37.12Z</time></trkpt><trkpt lat="43.3484689" lon="11.0837642"><ele>218.0</ele><time>2026-04-11T09:16:38.12Z</time></trkpt><trkpt lat="43.3485187" lon="11.0839263"><ele>218.0</ele><time>2026-04-11T09:16:39.12Z</time></trkpt><trkpt lat="43.3485838" lon="11.0840935"><ele>218.0</ele><time>2026-04-11T09:16:40.121Z</time></trkpt><trkpt lat="43.3486523" lon="11.0842564"><ele>218.0</ele><time>2026-04-11T09:16:41.119Z</time></trkpt><trkpt lat="43.3487128" lon="11.0844196"><ele>218.0</ele><time>2026-04-11T09:16:42.119Z</time></trkpt><trkpt lat="43.3487657" lon="11.0845911"><ele>217.75</ele><time>2026-04-11T09:16:43.12Z</time></trkpt><trkpt lat="43.3488221" lon="11.0847592"><ele>217.5</ele><time>2026-04-11T09:16:44.12Z</time></trkpt><trkpt lat="43.3488779" lon="11.0849027"><ele>217.25</ele><time>2026-04-11T09:16:45.12Z</time></trkpt><trkpt lat="43.3489466" lon="11.0850474"><ele>217.0</ele><time>2026-04-11T09:16:46.119Z</time></trkpt><trkpt lat="43.3490258" lon="11.0851949"><ele>216.0</ele><time>2026-04-11T09:16:47.119Z</time></trkpt><trkpt lat="43.3491136" lon="11.0853382"><ele>215.0</ele><time>2026-04-11T09:16:48.12Z</time></trkpt><trkpt lat="43.349213" lon="11.0854912"><ele>214.0</ele><time>2026-04-11T09:16:49.12Z</time></trkpt><trkpt lat="43.3493211" lon="11.0856548"><ele>213.0</ele><time>2026-04-11T09:16:50.12Z</time></trkpt><trkpt lat="43.3494226" lon="11.0858227"><ele>213.33333333333331</ele><time>2026-04-11T09:16:51.12Z</time></trkpt><trkpt lat="43.3495292" lon="11.0859991"><ele>213.66666666666666</ele><time>2026-04-11T09:16:52.121Z</time></trkpt><trkpt lat="43.3496301" lon="11.0861788"><ele>214.0</ele><time>2026-04-11T09:16:53.121Z</time></trkpt><trkpt lat="43.3497223" lon="11.0863499"><ele>214.0</ele><time>2026-04-11T09:16:54.12Z</time></trkpt><trkpt lat="43.3498172" lon="11.0865128"><ele>214.0</ele><time>2026-04-11T09:16:55.12Z</time></trkpt><trkpt lat="43.3498952" lon="11.0866578"><ele>214.0</ele><time>2026-04-11T09:16:56.12Z</time></trkpt><trkpt lat="43.3499731" lon="11.0867819"><ele>214.0</ele><time>2026-04-11T09:16:57.119Z</time></trkpt><trkpt lat="43.3500461" lon="11.086887"><ele>212.75</ele><time>2026-04-11T09:16:58.12Z</time></trkpt><trkpt lat="43.3501373" lon="11.0869861"><ele>211.5</ele><time>2026-04-11T09:16:59.12Z</time></trkpt><trkpt lat="43.3502335" lon="11.0870686"><ele>210.25</ele><time>2026-04-11T09:17:00.12Z</time></trkpt><trkpt lat="43.350338" lon="11.0871588"><ele>209.0</ele><time>2026-04-11T09:17:01.121Z</time></trkpt><trkpt lat="43.3504572" lon="11.0872529"><ele>208.0</ele><time>2026-04-11T09:17:02.12Z</time></trkpt><trkpt lat="43.3505624" lon="11.0873566"><ele>207.0</ele><time>2026-04-11T09:17:03.119Z</time></trkpt><trkpt lat="43.3506576" lon="11.0874757"><ele>206.0</ele><time>2026-04-11T09:17:04.121Z</time></trkpt><trkpt lat="43.3507676" lon="11.0876059"><ele>205.0</ele><time>2026-04-11T09:17:05.12Z</time></trkpt><trkpt lat="43.3508699" lon="11.0877489"><ele>205.0</ele><time>2026-04-11T09:17:06.119Z</time></trkpt><trkpt lat="43.3509608" lon="11.0878824"><ele>205.0</ele><time>2026-04-11T09:17:07.119Z</time></trkpt><trkpt lat="43.3510475" lon="11.0880108"><ele>205.0</ele><time>2026-04-11T09:17:08.121Z</time></trkpt><trkpt lat="43.3511305" lon="11.0881255"><ele>205.0</ele><time>2026-04-11T09:17:09.12Z</time></trkpt><trkpt lat="43.3512102" lon="11.0882307"><ele>203.8</ele><time>2026-04-11T09:17:10.118Z</time></trkpt><trkpt lat="43.3512817" lon="11.0883306"><ele>202.6</ele><time>2026-04-11T09:17:11.119Z</time></trkpt><trkpt lat="43.3513569" lon="11.0884241"><ele>201.39999999999998</ele><time>2026-04-11T09:17:12.12Z</time></trkpt><trkpt lat="43.3514285" lon="11.0884923"><ele>200.2</ele><time>2026-04-11T09:17:13.12Z</time></trkpt><trkpt lat="43.3515019" lon="11.0885302"><ele>199.0</ele><time>2026-04-11T09:17:14.119Z</time></trkpt><trkpt lat="43.3515843" lon="11.0885304"><ele>198.79999999999998</ele><time>2026-04-11T09:17:15.12Z</time></trkpt><trkpt lat="43.3516743" lon="11.0884918"><ele>198.6</ele><time>2026-04-11T09:17:16.119Z</time></trkpt><trkpt lat="43.3517605" lon="11.0884538"><ele>198.4</ele><time>2026-04-11T09:17:17.12Z</time></trkpt><trkpt lat="43.3518503" lon="11.0884462"><ele>198.2</ele><time>2026-04-11T09:17:18.12Z</time></trkpt><trkpt lat="43.3519501" lon="11.0884701"><ele>198.0</ele><time>2026-04-11T09:17:19.118Z</time></trkpt><trkpt lat="43.3520551" lon="11.0885138"><ele>198.0</ele><time>2026-04-11T09:17:20.119Z</time></trkpt><trkpt lat="43.3521597" lon="11.0885822"><ele>198.0</ele><time>2026-04-11T09:17:21.119Z</time></trkpt><trkpt lat="43.3522688" lon="11.0886496"><ele>198.0</ele><time>2026-04-11T09:17:22.12Z</time></trkpt><trkpt lat="43.3523772" lon="11.0887033"><ele>198.0</ele><time>2026-04-11T09:17:23.12Z</time></trkpt><trkpt lat="43.3524811" lon="11.088737"><ele>198.5</ele><time>2026-04-11T09:17:24.119Z</time></trkpt><trkpt lat="43.3525812" lon="11.0887486"><ele>199.0</ele><time>2026-04-11T09:17:25.12Z</time></trkpt><trkpt lat="43.352669" lon="11.0887604"><ele>199.5</ele><time>2026-04-11T09:17:26.12Z</time></trkpt><trkpt lat="43.3527432" lon="11.0887854"><ele>200.0</ele><time>2026-04-11T09:17:27.12Z</time></trkpt><trkpt lat="43.3527996" lon="11.0888336"><ele>200.5</ele><time>2026-04-11T09:17:28.119Z</time></trkpt><trkpt lat="43.3528474" lon="11.0888911"><ele>201.0</ele><time>2026-04-11T09:17:29.12Z</time></trkpt><trkpt lat="43.3528812" lon="11.0889806"><ele>201.0</ele><time>2026-04-11T09:17:30.121Z</time></trkpt><trkpt lat="43.3529312" lon="11.0890466"><ele>201.0</ele><time>2026-04-11T09:17:31.12Z</time></trkpt><trkpt lat="43.3529889" lon="11.0891211"><ele>201.0</ele><time>2026-04-11T09:17:32.121Z</time></trkpt><trkpt lat="43.3530606" lon="11.0891938"><ele>201.0</ele><time>2026-04-11T09:17:33.12Z</time></trkpt><trkpt lat="43.3531425" lon="11.0892753"><ele>201.0</ele><time>2026-04-11T09:17:34.119Z</time></trkpt><trkpt lat="43.3532192" lon="11.0893683"><ele>201.0</ele><time>2026-04-11T09:17:35.12Z</time></trkpt><trkpt lat="43.3532778" lon="11.0894459"><ele>203.0</ele><time>2026-04-11T09:17:36.12Z</time></trkpt><trkpt lat="43.3533292" lon="11.089577"><ele>205.0</ele><time>2026-04-11T09:17:38.119Z</time></trkpt><trkpt lat="43.353335" lon="11.0896746"><ele>207.0</ele><time>2026-04-11T09:17:39.119Z</time></trkpt><trkpt lat="43.3533477" lon="11.0897897"><ele>209.0</ele><time>2026-04-11T09:17:40.12Z</time></trkpt><trkpt lat="43.3533651" lon="11.0899154"><ele>211.0</ele><time>2026-04-11T09:17:41.12Z</time></trkpt><trkpt lat="43.3533786" lon="11.090056"><ele>211.0</ele><time>2026-04-11T09:17:42.119Z</time></trkpt><trkpt lat="43.3534005" lon="11.0902248"><ele>211.0</ele><time>2026-04-11T09:17:43.12Z</time></trkpt><trkpt lat="43.3534285" lon="11.0904159"><ele>211.0</ele><time>2026-04-11T09:17:44.119Z</time></trkpt><trkpt lat="43.353452" lon="11.0906153"><ele>211.0</ele><time>2026-04-11T09:17:45.12Z</time></trkpt><trkpt lat="43.3534794" lon="11.0908297"><ele>209.66666666666666</ele><time>2026-04-11T09:17:46.12Z</time></trkpt><trkpt lat="43.3535046" lon="11.0910378"><ele>208.33333333333331</ele><time>2026-04-11T09:17:47.119Z</time></trkpt><trkpt lat="43.3535305" lon="11.0912395"><ele>207.0</ele><time>2026-04-11T09:17:48.12Z</time></trkpt><trkpt lat="43.3535589" lon="11.0914518"><ele>206.0</ele><time>2026-04-11T09:17:49.12Z</time></trkpt><trkpt lat="43.353589" lon="11.0916529"><ele>205.0</ele><time>2026-04-11T09:17:50.12Z</time></trkpt><trkpt lat="43.353612" lon="11.0918345"><ele>204.0</ele><time>2026-04-11T09:17:51.121Z</time></trkpt><trkpt lat="43.3536338" lon="11.0920066"><ele>203.0</ele><time>2026-04-11T09:17:52.12Z</time></trkpt><trkpt lat="43.3536544" lon="11.0921548"><ele>203.00000000000003</ele><time>2026-04-11T09:17:53.12Z</time></trkpt><trkpt lat="43.3536732" lon="11.0922656"><ele>203.0</ele><time>2026-04-11T09:17:54.12Z</time></trkpt><trkpt lat="43.3536841" lon="11.0923798"><ele>203.0</ele><time>2026-04-11T09:17:56.12Z</time></trkpt><trkpt lat="43.3536662" lon="11.09229"><ele>203.0</ele><time>2026-04-11T09:18:07.12Z</time></trkpt><trkpt lat="43.3535757" lon="11.0922841"><ele>203.00000000000003</ele><time>2026-04-11T09:18:20.121Z</time></trkpt><trkpt lat="43.3535037" lon="11.0922952"><ele>203.0</ele><time>2026-04-11T09:18:21.12Z</time></trkpt><trkpt lat="43.3534315" lon="11.0923212"><ele>203.0</ele><time>2026-04-11T09:18:22.121Z</time></trkpt><trkpt lat="43.3533534" lon="11.0923581"><ele>203.0</ele><time>2026-04-11T09:18:23.12Z</time></trkpt><trkpt lat="43.3532836" lon="11.0923928"><ele>203.0</ele><time>2026-04-11T09:18:24.12Z</time></trkpt><trkpt lat="43.3532022" lon="11.0924359"><ele>203.0</ele><time>2026-04-11T09:18:25.119Z</time></trkpt><trkpt lat="43.3531109" lon="11.0924862"><ele>203.0</ele><time>2026-04-11T09:18:26.12Z</time></trkpt><trkpt lat="43.3529987" lon="11.0925484"><ele>201.5</ele><time>2026-04-11T09:18:27.119Z</time></trkpt><trkpt lat="43.35289" lon="11.0926074"><ele>200.0</ele><time>2026-04-11T09:18:28.121Z</time></trkpt><trkpt lat="43.3527749" lon="11.0926631"><ele>198.5</ele><time>2026-04-11T09:18:29.12Z</time></trkpt><trkpt lat="43.3526581" lon="11.0927281"><ele>197.0</ele><time>2026-04-11T09:18:30.12Z</time></trkpt><trkpt lat="43.3525491" lon="11.0927867"><ele>197.0</ele><time>2026-04-11T09:18:31.12Z</time></trkpt><trkpt lat="43.3524503" lon="11.0928339"><ele>197.0</ele><time>2026-04-11T09:18:32.12Z</time></trkpt><trkpt lat="43.352365" lon="11.0928842"><ele>197.0</ele><time>2026-04-11T09:18:33.121Z</time></trkpt><trkpt lat="43.3522834" lon="11.0929259"><ele>197.0</ele><time>2026-04-11T09:18:34.12Z</time></trkpt><trkpt lat="43.3522205" lon="11.0929481"><ele>197.0</ele><time>2026-04-11T09:18:35.119Z</time></trkpt><trkpt lat="43.3521195" lon="11.0929755"><ele>196.83333333333334</ele><time>2026-04-11T09:18:37.119Z</time></trkpt><trkpt lat="43.3520455" lon="11.0929864"><ele>196.66666666666669</ele><time>2026-04-11T09:18:40.12Z</time></trkpt><trkpt lat="43.3519917" lon="11.0930945"><ele>196.5</ele><time>2026-04-11T09:18:43.12Z</time></trkpt><trkpt lat="43.3519596" lon="11.0931755"><ele>196.33333333333331</ele><time>2026-04-11T09:18:45.119Z</time></trkpt><trkpt lat="43.3519249" lon="11.0932743"><ele>196.16666666666666</ele><time>2026-04-11T09:18:47.12Z</time></trkpt><trkpt lat="43.3519173" lon="11.093376"><ele>196.0</ele><time>2026-04-11T09:18:49.12Z</time></trkpt><trkpt lat="43.3518935" lon="11.0935067"><ele>195.99999999999997</ele><time>2026-04-11T09:18:51.12Z</time></trkpt><trkpt lat="43.3518775" lon="11.0936541"><ele>196.0</ele><time>2026-04-11T09:18:53.12Z</time></trkpt><trkpt lat="43.3518683" lon="11.0937474"><ele>196.0</ele><time>2026-04-11T09:18:54.119Z</time></trkpt><trkpt lat="43.3518485" lon="11.0938532"><ele>196.0</ele><time>2026-04-11T09:18:55.12Z</time></trkpt><trkpt lat="43.351826" lon="11.0939717"><ele>195.99999999999997</ele><time>2026-04-11T09:18:56.12Z</time></trkpt><trkpt lat="43.3517992" lon="11.0940905"><ele>196.0</ele><time>2026-04-11T09:18:57.121Z</time></trkpt><trkpt lat="43.3517746" lon="11.0942156"><ele>196.20000000000002</ele><time>2026-04-11T09:18:58.119Z</time></trkpt><trkpt lat="43.3517481" lon="11.094344"><ele>196.4</ele><time>2026-04-11T09:18:59.12Z</time></trkpt><trkpt lat="43.3517268" lon="11.0944617"><ele>196.6</ele><time>2026-04-11T09:19:00.121Z</time></trkpt><trkpt lat="43.3517135" lon="11.0945622"><ele>196.8</ele><time>2026-04-11T09:19:01.12Z</time></trkpt><trkpt lat="43.3516863" lon="11.0947434"><ele>197.0</ele><time>2026-04-11T09:19:03.121Z</time></trkpt><trkpt lat="43.3516699" lon="11.0948347"><ele>197.00000000000003</ele><time>2026-04-11T09:19:04.119Z</time></trkpt><trkpt lat="43.3516502" lon="11.0949197"><ele>197.0</ele><time>2026-04-11T09:19:05.12Z</time></trkpt><trkpt lat="43.3516139" lon="11.0950047"><ele>197.0</ele><time>2026-04-11T09:19:06.12Z</time></trkpt><trkpt lat="43.3515752" lon="11.0950932"><ele>197.0</ele><time>2026-04-11T09:19:07.12Z</time></trkpt><trkpt lat="43.351523" lon="11.0951836"><ele>197.00000000000003</ele><time>2026-04-11T09:19:08.12Z</time></trkpt><trkpt lat="43.351463" lon="11.0952731"><ele>197.0</ele><time>2026-04-11T09:19:09.12Z</time></trkpt><trkpt lat="43.3513894" lon="11.095374"><ele>198.33333333333334</ele><time>2026-04-11T09:19:10.121Z</time></trkpt><trkpt lat="43.3513197" lon="11.0954687"><ele>199.66666666666669</ele><time>2026-04-11T09:19:11.121Z</time></trkpt><trkpt lat="43.3512574" lon="11.0955463"><ele>201.0</ele><time>2026-04-11T09:19:12.12Z</time></trkpt><trkpt lat="43.3511991" lon="11.0956117"><ele>202.33333333333331</ele><time>2026-04-11T09:19:13.121Z</time></trkpt><trkpt lat="43.3511292" lon="11.095683"><ele>203.66666666666666</ele><time>2026-04-11T09:19:14.12Z</time></trkpt><trkpt lat="43.3510612" lon="11.0957502"><ele>205.0</ele><time>2026-04-11T09:19:15.121Z</time></trkpt><trkpt lat="43.3509751" lon="11.0958088"><ele>205.0</ele><time>2026-04-11T09:19:16.12Z</time></trkpt><trkpt lat="43.350889" lon="11.0958582"><ele>205.0</ele><time>2026-04-11T09:19:17.12Z</time></trkpt><trkpt lat="43.3508029" lon="11.0959079"><ele>205.0</ele><time>2026-04-11T09:19:18.12Z</time></trkpt><trkpt lat="43.3507125" lon="11.0959553"><ele>205.0</ele><time>2026-04-11T09:19:19.12Z</time></trkpt><trkpt lat="43.3506278" lon="11.0960007"><ele>205.0</ele><time>2026-04-11T09:19:20.119Z</time></trkpt><trkpt lat="43.3505392" lon="11.0960483"><ele>206.8</ele><time>2026-04-11T09:19:21.12Z</time></trkpt><trkpt lat="43.3504583" lon="11.0960929"><ele>208.6</ele><time>2026-04-11T09:19:22.12Z</time></trkpt><trkpt lat="43.3503787" lon="11.0961427"><ele>210.39999999999998</ele><time>2026-04-11T09:19:23.121Z</time></trkpt><trkpt lat="43.3502936" lon="11.0961964"><ele>212.2</ele><time>2026-04-11T09:19:24.12Z</time></trkpt><trkpt lat="43.3502079" lon="11.0962583"><ele>214.0</ele><time>2026-04-11T09:19:25.12Z</time></trkpt><trkpt lat="43.3501117" lon="11.0963192"><ele>213.99999999999997</ele><time>2026-04-11T09:19:26.121Z</time></trkpt><trkpt lat="43.3500129" lon="11.0963746"><ele>214.0</ele><time>2026-04-11T09:19:27.12Z</time></trkpt><trkpt lat="43.3499308" lon="11.0964086"><ele>214.0</ele><time>2026-04-11T09:19:28.119Z</time></trkpt><trkpt lat="43.3498483" lon="11.0964152"><ele>214.0</ele><time>2026-04-11T09:19:29.12Z</time></trkpt><trkpt lat="43.3497801" lon="11.0964177"><ele>213.99999999999997</ele><time>2026-04-11T09:19:30.119Z</time></trkpt><trkpt lat="43.3497033" lon="11.096436"><ele>214.0</ele><time>2026-04-11T09:19:32.119Z</time></trkpt><trkpt lat="43.3496869" lon="11.0963402"><ele>214.49999999999997</ele><time>2026-04-11T09:19:36.119Z</time></trkpt><trkpt lat="43.3496499" lon="11.0962246"><ele>215.0</ele><time>2026-04-11T09:19:38.12Z</time></trkpt><trkpt lat="43.3496171" lon="11.0961484"><ele>215.5</ele><time>2026-04-11T09:19:39.12Z</time></trkpt><trkpt lat="43.3495715" lon="11.095986"><ele>216.0</ele><time>2026-04-11T09:19:41.12Z</time></trkpt><trkpt lat="43.3495397" lon="11.0959058"><ele>216.49999999999997</ele><time>2026-04-11T09:19:42.121Z</time></trkpt><trkpt lat="43.3494958" lon="11.0958145"><ele>217.0</ele><time>2026-04-11T09:19:43.12Z</time></trkpt><trkpt lat="43.3494374" lon="11.0957228"><ele>217.0</ele><time>2026-04-11T09:19:44.12Z</time></trkpt><trkpt lat="43.3493715" lon="11.0956319"><ele>217.0</ele><time>2026-04-11T09:19:45.12Z</time></trkpt><trkpt lat="43.3492734" lon="11.0955593"><ele>217.0</ele><time>2026-04-11T09:19:46.12Z</time></trkpt><trkpt lat="43.3491838" lon="11.0954916"><ele>217.0</ele><time>2026-04-11T09:19:47.121Z</time></trkpt><trkpt lat="43.3491095" lon="11.0954317"><ele>217.0</ele><time>2026-04-11T09:19:48.12Z</time></trkpt><trkpt lat="43.349034" lon="11.0954145"><ele>217.0</ele><time>2026-04-11T09:19:49.12Z</time></trkpt><trkpt lat="43.3489547" lon="11.0954184"><ele>217.0</ele><time>2026-04-11T09:19:50.12Z</time></trkpt><trkpt lat="43.3488792" lon="11.0954072"><ele>217.0</ele><time>2026-04-11T09:19:51.119Z</time></trkpt><trkpt lat="43.3487898" lon="11.0952941"><ele>217.0</ele><time>2026-04-11T09:19:53.12Z</time></trkpt><trkpt lat="43.3486992" lon="11.0951858"><ele>217.0</ele><time>2026-04-11T09:19:55.12Z</time></trkpt><trkpt lat="43.3486293" lon="11.0951484"><ele>218.6</ele><time>2026-04-11T09:19:56.12Z</time></trkpt><trkpt lat="43.3485444" lon="11.0951034"><ele>220.2</ele><time>2026-04-11T09:19:57.12Z</time></trkpt><trkpt lat="43.348466" lon="11.095048"><ele>221.8</ele><time>2026-04-11T09:19:58.12Z</time></trkpt><trkpt lat="43.3484079" lon="11.0949838"><ele>223.4</ele><time>2026-04-11T09:19:59.12Z</time></trkpt><trkpt lat="43.3483413" lon="11.0948381"><ele>225.0</ele><time>2026-04-11T09:20:01.12Z</time></trkpt><trkpt lat="43.3483078" lon="11.0947478"><ele>225.0</ele><time>2026-04-11T09:20:02.12Z</time></trkpt><trkpt lat="43.348268" lon="11.0946513"><ele>225.0</ele><time>2026-04-11T09:20:03.121Z</time></trkpt><trkpt lat="43.3482187" lon="11.0945662"><ele>225.0</ele><time>2026-04-11T09:20:04.12Z</time></trkpt><trkpt lat="43.3481611" lon="11.0944857"><ele>225.0</ele><time>2026-04-11T09:20:05.119Z</time></trkpt><trkpt lat="43.3480879" lon="11.0943911"><ele>225.0</ele><time>2026-04-11T09:20:06.12Z</time></trkpt><trkpt lat="43.3480318" lon="11.0943058"><ele>225.0</ele><time>2026-04-11T09:20:07.119Z</time></trkpt><trkpt lat="43.3479732" lon="11.0942345"><ele>225.33333333333334</ele><time>2026-04-11T09:20:08.119Z</time></trkpt><trkpt lat="43.3479056" lon="11.0941851"><ele>225.66666666666669</ele><time>2026-04-11T09:20:09.12Z</time></trkpt><trkpt lat="43.347829" lon="11.0941441"><ele>226.0</ele><time>2026-04-11T09:20:10.12Z</time></trkpt><trkpt lat="43.3477551" lon="11.0940911"><ele>226.33333333333334</ele><time>2026-04-11T09:20:11.119Z</time></trkpt><trkpt lat="43.347674" lon="11.0940398"><ele>226.66666666666669</ele><time>2026-04-11T09:20:12.12Z</time></trkpt><trkpt lat="43.347596" lon="11.0939825"><ele>227.0</ele><time>2026-04-11T09:20:13.12Z</time></trkpt><trkpt lat="43.3475147" lon="11.0939327"><ele>226.33333333333334</ele><time>2026-04-11T09:20:14.121Z</time></trkpt><trkpt lat="43.3474396" lon="11.0939061"><ele>225.66666666666669</ele><time>2026-04-11T09:20:15.122Z</time></trkpt><trkpt lat="43.3473546" lon="11.0938657"><ele>225.0</ele><time>2026-04-11T09:20:16.119Z</time></trkpt><trkpt lat="43.3472779" lon="11.0938123"><ele>224.33333333333331</ele><time>2026-04-11T09:20:17.12Z</time></trkpt><trkpt lat="43.347201" lon="11.0937626"><ele>223.66666666666666</ele><time>2026-04-11T09:20:18.119Z</time></trkpt><trkpt lat="43.3471201" lon="11.093692"><ele>223.0</ele><time>2026-04-11T09:20:19.12Z</time></trkpt><trkpt lat="43.347032" lon="11.0936233"><ele>224.83333333333331</ele><time>2026-04-11T09:20:20.12Z</time></trkpt><trkpt lat="43.3469491" lon="11.0935588"><ele>226.66666666666666</ele><time>2026-04-11T09:20:21.119Z</time></trkpt><trkpt lat="43.3468589" lon="11.0934878"><ele>228.5</ele><time>2026-04-11T09:20:22.12Z</time></trkpt><trkpt lat="43.3467771" lon="11.0934172"><ele>230.33333333333331</ele><time>2026-04-11T09:20:23.12Z</time></trkpt><trkpt lat="43.3467056" lon="11.093356"><ele>232.16666666666666</ele><time>2026-04-11T09:20:24.121Z</time></trkpt><trkpt lat="43.3466504" lon="11.0933135"><ele>234.0</ele><time>2026-04-11T09:20:25.121Z</time></trkpt><trkpt lat="43.3465705" lon="11.09329"><ele>234.0</ele><time>2026-04-11T09:20:27.12Z</time></trkpt><trkpt lat="43.3465302" lon="11.0933865"><ele>233.99999999999997</ele><time>2026-04-11T09:20:29.12Z</time></trkpt><trkpt lat="43.3464939" lon="11.0935713"><ele>233.99999999999997</ele><time>2026-04-11T09:20:31.119Z</time></trkpt><trkpt lat="43.3464817" lon="11.0936667"><ele>234.0</ele><time>2026-04-11T09:20:32.12Z</time></trkpt><trkpt lat="43.34644" lon="11.093821"><ele>234.0</ele><time>2026-04-11T09:20:34.121Z</time></trkpt><trkpt lat="43.3463872" lon="11.0938933"><ele>235.5</ele><time>2026-04-11T09:20:36.12Z</time></trkpt><trkpt lat="43.3463173" lon="11.0938959"><ele>237.0</ele><time>2026-04-11T09:20:41.119Z</time></trkpt><trkpt lat="43.3462939" lon="11.0939767"><ele>238.5</ele><time>2026-04-11T09:20:45.121Z</time></trkpt><trkpt lat="43.34627" lon="11.0940672"><ele>240.0</ele><time>2026-04-11T09:20:47.121Z</time></trkpt><trkpt lat="43.3462248" lon="11.0942321"><ele>241.5</ele><time>2026-04-11T09:20:49.121Z</time></trkpt><trkpt lat="43.3461893" lon="11.0943155"><ele>243.0</ele><time>2026-04-11T09:20:50.12Z</time></trkpt><trkpt lat="43.3461555" lon="11.0944104"><ele>243.16666666666666</ele><time>2026-04-11T09:20:51.12Z</time></trkpt><trkpt lat="43.3461157" lon="11.0944931"><ele>243.33333333333331</ele><time>2026-04-11T09:20:52.12Z</time></trkpt><trkpt lat="43.3460826" lon="11.0945747"><ele>243.5</ele><time>2026-04-11T09:20:53.119Z</time></trkpt><trkpt lat="43.3460305" lon="11.0946486"><ele>243.66666666666666</ele><time>2026-04-11T09:20:54.12Z</time></trkpt><trkpt lat="43.3459791" lon="11.0947183"><ele>243.83333333333331</ele><time>2026-04-11T09:20:55.121Z</time></trkpt><trkpt lat="43.3459355" lon="11.0948056"><ele>244.0</ele><time>2026-04-11T09:20:56.12Z</time></trkpt><trkpt lat="43.34589" lon="11.0949145"><ele>243.2</ele><time>2026-04-11T09:20:57.12Z</time></trkpt><trkpt lat="43.3458392" lon="11.0950235"><ele>242.39999999999998</ele><time>2026-04-11T09:20:58.119Z</time></trkpt><trkpt lat="43.345774" lon="11.0951392"><ele>241.6</ele><time>2026-04-11T09:20:59.119Z</time></trkpt><trkpt lat="43.3457271" lon="11.0952849"><ele>240.8</ele><time>2026-04-11T09:21:00.12Z</time></trkpt><trkpt lat="43.3456763" lon="11.0954458"><ele>240.0</ele><time>2026-04-11T09:21:01.12Z</time></trkpt><trkpt lat="43.3456284" lon="11.0955858"><ele>240.0</ele><time>2026-04-11T09:21:02.12Z</time></trkpt><trkpt lat="43.3455946" lon="11.0957088"><ele>240.0</ele><time>2026-04-11T09:21:03.119Z</time></trkpt><trkpt lat="43.3455605" lon="11.0958095"><ele>240.0</ele><time>2026-04-11T09:21:04.12Z</time></trkpt><trkpt lat="43.3455215" lon="11.0959749"><ele>240.0</ele><time>2026-04-11T09:21:06.121Z</time></trkpt><trkpt lat="43.345514" lon="11.0960738"><ele>240.0</ele><time>2026-04-11T09:21:07.12Z</time></trkpt><trkpt lat="43.3454959" lon="11.0961933"><ele>240.0</ele><time>2026-04-11T09:21:08.12Z</time></trkpt><trkpt lat="43.3454884" lon="11.0963141"><ele>240.0</ele><time>2026-04-11T09:21:09.122Z</time></trkpt><trkpt lat="43.3454682" lon="11.096414"><ele>240.0</ele><time>2026-04-11T09:21:10.121Z</time></trkpt><trkpt lat="43.3454404" lon="11.0965319"><ele>240.0</ele><time>2026-04-11T09:21:12.12Z</time></trkpt><trkpt lat="43.3453179" lon="11.0965623"><ele>240.0</ele><time>2026-04-11T09:21:14.12Z</time></trkpt><trkpt lat="43.3452445" lon="11.0965796"><ele>240.0</ele><time>2026-04-11T09:21:15.12Z</time></trkpt><trkpt lat="43.345169" lon="11.096633"><ele>240.0</ele><time>2026-04-11T09:21:16.119Z</time></trkpt><trkpt lat="43.3451031" lon="11.0967119"><ele>240.0</ele><time>2026-04-11T09:21:17.12Z</time></trkpt><trkpt lat="43.3450396" lon="11.0967853"><ele>240.0</ele><time>2026-04-11T09:21:18.121Z</time></trkpt><trkpt lat="43.3449667" lon="11.0968436"><ele>240.0</ele><time>2026-04-11T09:21:19.12Z</time></trkpt><trkpt lat="43.3448895" lon="11.0968937"><ele>240.0</ele><time>2026-04-11T09:21:20.119Z</time></trkpt><trkpt lat="43.3448102" lon="11.0969218"><ele>240.0</ele><time>2026-04-11T09:21:21.121Z</time></trkpt><trkpt lat="43.3447247" lon="11.0969452"><ele>240.0</ele><time>2026-04-11T09:21:22.12Z</time></trkpt><trkpt lat="43.3446293" lon="11.0969596"><ele>240.0</ele><time>2026-04-11T09:21:23.119Z</time></trkpt><trkpt lat="43.3445414" lon="11.0970033"><ele>240.0</ele><time>2026-04-11T09:21:24.12Z</time></trkpt><trkpt lat="43.3444738" lon="11.097056"><ele>240.0</ele><time>2026-04-11T09:21:25.12Z</time></trkpt><trkpt lat="43.3444171" lon="11.0971212"><ele>240.0</ele><time>2026-04-11T09:21:26.121Z</time></trkpt><trkpt lat="43.3443686" lon="11.0971775"><ele>239.0</ele><time>2026-04-11T09:21:27.12Z</time></trkpt><trkpt lat="43.3442781" lon="11.0971955"><ele>238.0</ele><time>2026-04-11T09:21:29.121Z</time></trkpt><trkpt lat="43.3441936" lon="11.0972108"><ele>237.0</ele><time>2026-04-11T09:21:31.12Z</time></trkpt><trkpt lat="43.3440811" lon="11.0972254"><ele>236.0</ele><time>2026-04-11T09:21:33.12Z</time></trkpt><trkpt lat="43.3439829" lon="11.0972234"><ele>235.0</ele><time>2026-04-11T09:21:35.12Z</time></trkpt><trkpt lat="43.3439111" lon="11.0972349"><ele>233.33333333333331</ele><time>2026-04-11T09:21:37.121Z</time></trkpt><trkpt lat="43.3438244" lon="11.0972429"><ele>231.66666666666666</ele><time>2026-04-11T09:21:39.12Z</time></trkpt><trkpt lat="43.3437588" lon="11.0972472"><ele>230.0</ele><time>2026-04-11T09:21:40.12Z</time></trkpt><trkpt lat="43.3436853" lon="11.0972297"><ele>228.33333333333331</ele><time>2026-04-11T09:21:41.12Z</time></trkpt><trkpt lat="43.3436221" lon="11.0971986"><ele>226.66666666666666</ele><time>2026-04-11T09:21:42.119Z</time></trkpt><trkpt lat="43.3435239" lon="11.0971804"><ele>225.0</ele><time>2026-04-11T09:21:44.121Z</time></trkpt><trkpt lat="43.3434266" lon="11.0972237"><ele>225.0</ele><time>2026-04-11T09:21:46.12Z</time></trkpt><trkpt lat="43.3433568" lon="11.0973254"><ele>225.0</ele><time>2026-04-11T09:21:48.12Z</time></trkpt><trkpt lat="43.3432812" lon="11.097352"><ele>225.0</ele><time>2026-04-11T09:21:50.121Z</time></trkpt><trkpt lat="43.3432002" lon="11.0973534"><ele>225.0</ele><time>2026-04-11T09:21:52.12Z</time></trkpt><trkpt lat="43.3431304" lon="11.0973229"><ele>225.0</ele><time>2026-04-11T09:21:54.12Z</time></trkpt><trkpt lat="43.3430597" lon="11.097301"><ele>225.0</ele><time>2026-04-11T09:22:00.119Z</time></trkpt><trkpt lat="43.3429829" lon="11.0973421"><ele>223.66666666666666</ele><time>2026-04-11T09:22:06.12Z</time></trkpt><trkpt lat="43.3429368" lon="11.0974097"><ele>222.33333333333331</ele><time>2026-04-11T09:22:08.12Z</time></trkpt><trkpt lat="43.3428893" lon="11.0974893"><ele>221.0</ele><time>2026-04-11T09:22:10.12Z</time></trkpt><trkpt lat="43.3428287" lon="11.0975626"><ele>219.66666666666666</ele><time>2026-04-11T09:22:13.12Z</time></trkpt><trkpt lat="43.3427483" lon="11.0975597"><ele>218.33333333333331</ele><time>2026-04-11T09:22:16.121Z</time></trkpt><trkpt lat="43.3426587" lon="11.0975716"><ele>217.0</ele><time>2026-04-11T09:22:18.12Z</time></trkpt><trkpt lat="43.3425805" lon="11.0976261"><ele>216.99999999999997</ele><time>2026-04-11T09:22:20.121Z</time></trkpt><trkpt lat="43.3425171" lon="11.097704"><ele>217.0</ele><time>2026-04-11T09:22:23.121Z</time></trkpt><trkpt lat="43.3424503" lon="11.0977585"><ele>217.0</ele><time>2026-04-11T09:22:27.12Z</time></trkpt><trkpt lat="43.3423784" lon="11.0977652"><ele>217.0</ele><time>2026-04-11T09:22:31.12Z</time></trkpt><trkpt lat="43.342317" lon="11.0978071"><ele>216.99999999999997</ele><time>2026-04-11T09:22:33.121Z</time></trkpt><trkpt lat="43.3422696" lon="11.0978641"><ele>217.0</ele><time>2026-04-11T09:22:35.12Z</time></trkpt><trkpt lat="43.3422286" lon="11.0979815"><ele>216.99999999999997</ele><time>2026-04-11T09:22:38.12Z</time></trkpt><trkpt lat="43.3422181" lon="11.0978949"><ele>217.0</ele><time>2026-04-11T09:22:53.121Z</time></trkpt><trkpt lat="43.3422046" lon="11.0977748"><ele>217.0</ele><time>2026-04-11T09:22:56.12Z</time></trkpt><trkpt lat="43.3421539" lon="11.0976827"><ele>217.0</ele><time>2026-04-11T09:22:59.119Z</time></trkpt><trkpt lat="43.3420689" lon="11.097627"><ele>216.99999999999997</ele><time>2026-04-11T09:23:02.121Z</time></trkpt><trkpt lat="43.3419994" lon="11.0976361"><ele>217.0</ele><time>2026-04-11T09:23:04.12Z</time></trkpt><trkpt lat="43.3420382" lon="11.097762"><ele>216.99999999999997</ele><time>2026-04-11T09:23:09.119Z</time></trkpt><trkpt lat="43.3420855" lon="11.0978441"><ele>217.0</ele><time>2026-04-11T09:23:11.119Z</time></trkpt><trkpt lat="43.3421572" lon="11.0978998"><ele>217.0</ele><time>2026-04-11T09:23:13.121Z</time></trkpt><trkpt lat="43.3422515" lon="11.0978672"><ele>217.0</ele><time>2026-04-11T09:23:16.12Z</time></trkpt><trkpt lat="43.3423382" lon="11.0978004"><ele>216.99999999999997</ele><time>2026-04-11T09:23:18.12Z</time></trkpt><trkpt lat="43.3424084" lon="11.0977724"><ele>217.0</ele><time>2026-04-11T09:23:20.119Z</time></trkpt><trkpt lat="43.3424732" lon="11.0977526"><ele>216.99999999999997</ele><time>2026-04-11T09:23:23.12Z</time></trkpt><trkpt lat="43.3425166" lon="11.0976814"><ele>217.0</ele><time>2026-04-11T09:23:25.122Z</time></trkpt><trkpt lat="43.3425836" lon="11.097605"><ele>217.0</ele><time>2026-04-11T09:23:27.12Z</time></trkpt><trkpt lat="43.3426621" lon="11.0975756"><ele>217.0</ele><time>2026-04-11T09:23:29.121Z</time></trkpt><trkpt lat="43.342756" lon="11.0975713"><ele>216.99999999999997</ele><time>2026-04-11T09:23:31.12Z</time></trkpt><trkpt lat="43.3428353" lon="11.0975197"><ele>217.0</ele><time>2026-04-11T09:23:33.12Z</time></trkpt><trkpt lat="43.3429075" lon="11.0974167"><ele>217.0</ele><time>2026-04-11T09:23:35.12Z</time></trkpt><trkpt lat="43.3429898" lon="11.0973255"><ele>217.0</ele><time>2026-04-11T09:23:37.12Z</time></trkpt><trkpt lat="43.343056" lon="11.0972959"><ele>217.0</ele><time>2026-04-11T09:23:40.119Z</time></trkpt><trkpt lat="43.3429875" lon="11.097268"><ele>217.0</ele><time>2026-04-11T09:23:51.12Z</time></trkpt><trkpt lat="43.3429414" lon="11.0973321"><ele>217.0</ele><time>2026-04-11T09:23:54.12Z</time></trkpt><trkpt lat="43.3429302" lon="11.0974236"><ele>217.0</ele><time>2026-04-11T09:23:57.121Z</time></trkpt><trkpt lat="43.3429758" lon="11.0973611"><ele>217.0</ele><time>2026-04-11T09:24:19.121Z</time></trkpt><trkpt lat="43.34304" lon="11.0973102"><ele>217.83333333333331</ele><time>2026-04-11T09:24:21.121Z</time></trkpt><trkpt lat="43.3430993" lon="11.0973419"><ele>218.66666666666666</ele><time>2026-04-11T09:24:23.121Z</time></trkpt><trkpt lat="43.3431305" lon="11.0974648"><ele>219.5</ele><time>2026-04-11T09:24:25.119Z</time></trkpt><trkpt lat="43.3431633" lon="11.097583"><ele>220.33333333333331</ele><time>2026-04-11T09:24:27.121Z</time></trkpt><trkpt lat="43.3431891" lon="11.0976975"><ele>221.16666666666666</ele><time>2026-04-11T09:24:29.119Z</time></trkpt><trkpt lat="43.3432034" lon="11.0977969"><ele>222.0</ele><time>2026-04-11T09:24:31.12Z</time></trkpt><trkpt lat="43.3432397" lon="11.0978797"><ele>222.0</ele><time>2026-04-11T09:24:40.12Z</time></trkpt><trkpt lat="43.3432744" lon="11.0979583"><ele>222.0</ele><time>2026-04-11T09:24:43.122Z</time></trkpt><trkpt lat="43.3433449" lon="11.0979237"><ele>222.0</ele><time>2026-04-11T09:24:47.12Z</time></trkpt><trkpt lat="43.3433954" lon="11.0978645"><ele>222.0</ele><time>2026-04-11T09:25:14.119Z</time></trkpt><trkpt lat="43.343453" lon="11.0977966"><ele>222.0</ele><time>2026-04-11T09:25:18.121Z</time></trkpt><trkpt lat="43.3435161" lon="11.0977953"><ele>222.0</ele><time>2026-04-11T09:25:22.119Z</time></trkpt><trkpt lat="43.3435365" lon="11.0977003"><ele>222.0</ele><time>2026-04-11T09:25:31.121Z</time></trkpt><trkpt lat="43.343521" lon="11.0976161"><ele>222.0</ele><time>2026-04-11T09:25:50.12Z</time></trkpt><trkpt lat="43.3434703" lon="11.0975618"><ele>222.0</ele><time>2026-04-11T09:25:52.121Z</time></trkpt><trkpt lat="43.3435453" lon="11.0975229"><ele>222.0</ele><time>2026-04-11T09:26:17.12Z</time></trkpt><trkpt lat="43.3436271" lon="11.0975592"><ele>222.0</ele><time>2026-04-11T09:26:21.12Z</time></trkpt><trkpt lat="43.3436869" lon="11.0976039"><ele>222.0</ele><time>2026-04-11T09:26:28.12Z</time></trkpt><trkpt lat="43.3437321" lon="11.0976803"><ele>222.0</ele><time>2026-04-11T09:26:31.122Z</time></trkpt><trkpt lat="43.3436899" lon="11.0975889"><ele>222.0</ele><time>2026-04-11T09:37:53.121Z</time></trkpt><trkpt lat="43.343631" lon="11.0975374"><ele>222.0</ele><time>2026-04-11T09:37:57.12Z</time></trkpt><trkpt lat="43.3435553" lon="11.0975026"><ele>222.0</ele><time>2026-04-11T09:38:08.12Z</time></trkpt><trkpt lat="43.3435122" lon="11.0974371"><ele>222.0</ele><time>2026-04-11T09:38:20.121Z</time></trkpt><trkpt lat="43.3434701" lon="11.0973675"><ele>222.0</ele><time>2026-04-11T09:38:26.12Z</time></trkpt><trkpt lat="43.3434477" lon="11.0972803"><ele>222.0</ele><time>2026-04-11T09:38:41.12Z</time></trkpt><trkpt lat="43.3434571" lon="11.0971937"><ele>222.0</ele><time>2026-04-11T09:38:54.119Z</time></trkpt><trkpt lat="43.3433954" lon="11.0971373"><ele>222.0</ele><time>2026-04-11T09:39:21.121Z</time></trkpt><trkpt lat="43.3433285" lon="11.0971543"><ele>222.5</ele><time>2026-04-11T09:39:23.119Z</time></trkpt><trkpt lat="43.3432441" lon="11.0971567"><ele>223.0</ele><time>2026-04-11T09:39:26.12Z</time></trkpt><trkpt lat="43.3431651" lon="11.0971481"><ele>223.5</ele><time>2026-04-11T09:39:28.12Z</time></trkpt><trkpt lat="43.3430997" lon="11.0971452"><ele>224.0</ele><time>2026-04-11T09:39:31.12Z</time></trkpt><trkpt lat="43.3430174" lon="11.0971153"><ele>224.5</ele><time>2026-04-11T09:39:36.12Z</time></trkpt><trkpt lat="43.3429344" lon="11.0971178"><ele>225.0</ele><time>2026-04-11T09:39:39.12Z</time></trkpt><trkpt lat="43.3428597" lon="11.0971115"><ele>223.66666666666666</ele><time>2026-04-11T09:39:41.12Z</time></trkpt><trkpt lat="43.3427957" lon="11.0971018"><ele>222.33333333333331</ele><time>2026-04-11T09:39:44.119Z</time></trkpt><trkpt lat="43.3427379" lon="11.0971819"><ele>221.0</ele><time>2026-04-11T09:39:47.12Z</time></trkpt><trkpt lat="43.342689" lon="11.0972859"><ele>219.66666666666666</ele><time>2026-04-11T09:39:50.12Z</time></trkpt><trkpt lat="43.3426165" lon="11.097389"><ele>218.33333333333331</ele><time>2026-04-11T09:39:53.12Z</time></trkpt><trkpt lat="43.3425592" lon="11.0974819"><ele>217.0</ele><time>2026-04-11T09:39:55.12Z</time></trkpt><trkpt lat="43.342522" lon="11.0975951"><ele>216.99999999999997</ele><time>2026-04-11T09:39:57.12Z</time></trkpt><trkpt lat="43.3424627" lon="11.0976813"><ele>217.0</ele><time>2026-04-11T09:39:59.121Z</time></trkpt><trkpt lat="43.342411" lon="11.0977365"><ele>217.0</ele><time>2026-04-11T09:40:02.119Z</time></trkpt><trkpt lat="43.3423375" lon="11.0976925"><ele>217.0</ele><time>2026-04-11T09:40:06.121Z</time></trkpt><trkpt lat="43.3422469" lon="11.0976321"><ele>216.99999999999997</ele><time>2026-04-11T09:40:08.12Z</time></trkpt><trkpt lat="43.3421733" lon="11.0975933"><ele>217.0</ele><time>2026-04-11T09:40:10.119Z</time></trkpt><trkpt lat="43.3420731" lon="11.0975361"><ele>216.39999999999998</ele><time>2026-04-11T09:40:12.12Z</time></trkpt><trkpt lat="43.3419923" lon="11.0974562"><ele>215.79999999999998</ele><time>2026-04-11T09:40:14.121Z</time></trkpt><trkpt lat="43.3419095" lon="11.0973828"><ele>215.2</ele><time>2026-04-11T09:40:16.121Z</time></trkpt><trkpt lat="43.3418399" lon="11.0972829"><ele>214.6</ele><time>2026-04-11T09:40:18.12Z</time></trkpt><trkpt lat="43.3417906" lon="11.0971956"><ele>214.0</ele><time>2026-04-11T09:40:20.12Z</time></trkpt><trkpt lat="43.3417245" lon="11.0971021"><ele>213.99999999999997</ele><time>2026-04-11T09:40:22.121Z</time></trkpt><trkpt lat="43.3416468" lon="11.0969983"><ele>214.0</ele><time>2026-04-11T09:40:24.12Z</time></trkpt><trkpt lat="43.3416019" lon="11.0969356"><ele>214.0</ele><time>2026-04-11T09:40:25.121Z</time></trkpt><trkpt lat="43.3415094" lon="11.0968188"><ele>214.0</ele><time>2026-04-11T09:40:27.12Z</time></trkpt><trkpt lat="43.34146" lon="11.0967606"><ele>213.99999999999997</ele><time>2026-04-11T09:40:28.12Z</time></trkpt><trkpt lat="43.3413921" lon="11.0966873"><ele>214.0</ele><time>2026-04-11T09:40:30.121Z</time></trkpt><trkpt lat="43.341359" lon="11.0965601"><ele>213.99999999999997</ele><time>2026-04-11T09:40:37.12Z</time></trkpt><trkpt lat="43.3413136" lon="11.0964281"><ele>214.0</ele><time>2026-04-11T09:40:39.12Z</time></trkpt><trkpt lat="43.341273" lon="11.0963619"><ele>214.0</ele><time>2026-04-11T09:40:40.119Z</time></trkpt><trkpt lat="43.3412122" lon="11.0962743"><ele>214.0</ele><time>2026-04-11T09:40:42.119Z</time></trkpt><trkpt lat="43.3411496" lon="11.0961962"><ele>213.99999999999997</ele><time>2026-04-11T09:40:44.12Z</time></trkpt><trkpt lat="43.3410695" lon="11.0961708"><ele>214.0</ele><time>2026-04-11T09:40:46.121Z</time></trkpt><trkpt lat="43.3410103" lon="11.0962012"><ele>213.99999999999997</ele><time>2026-04-11T09:40:48.119Z</time></trkpt><trkpt lat="43.3409504" lon="11.0962567"><ele>214.0</ele><time>2026-04-11T09:40:51.121Z</time></trkpt><trkpt lat="43.3409177" lon="11.0963593"><ele>214.0</ele><time>2026-04-11T09:40:56.12Z</time></trkpt><trkpt lat="43.3408749" lon="11.0964401"><ele>214.0</ele><time>2026-04-11T09:40:58.12Z</time></trkpt><trkpt lat="43.34084" lon="11.0965179"><ele>213.99999999999997</ele><time>2026-04-11T09:40:59.119Z</time></trkpt><trkpt lat="43.3407978" lon="11.0966051"><ele>214.0</ele><time>2026-04-11T09:41:00.12Z</time></trkpt><trkpt lat="43.3407589" lon="11.0967053"><ele>213.2</ele><time>2026-04-11T09:41:01.12Z</time></trkpt><trkpt lat="43.3407168" lon="11.0968081"><ele>212.39999999999998</ele><time>2026-04-11T09:41:02.121Z</time></trkpt><trkpt lat="43.3406573" lon="11.0969313"><ele>211.6</ele><time>2026-04-11T09:41:03.12Z</time></trkpt><trkpt lat="43.3405975" lon="11.0970536"><ele>210.8</ele><time>2026-04-11T09:41:04.12Z</time></trkpt><trkpt lat="43.3405433" lon="11.0971804"><ele>210.0</ele><time>2026-04-11T09:41:05.119Z</time></trkpt><trkpt lat="43.3404908" lon="11.0973169"><ele>209.16666666666666</ele><time>2026-04-11T09:41:06.12Z</time></trkpt><trkpt lat="43.3404357" lon="11.0974339"><ele>208.33333333333331</ele><time>2026-04-11T09:41:07.119Z</time></trkpt><trkpt lat="43.3403877" lon="11.0975437"><ele>207.5</ele><time>2026-04-11T09:41:08.12Z</time></trkpt><trkpt lat="43.3403382" lon="11.0976417"><ele>206.66666666666666</ele><time>2026-04-11T09:41:09.12Z</time></trkpt><trkpt lat="43.3402943" lon="11.0977267"><ele>205.83333333333331</ele><time>2026-04-11T09:41:10.12Z</time></trkpt><trkpt lat="43.3402483" lon="11.0978072"><ele>205.0</ele><time>2026-04-11T09:41:11.12Z</time></trkpt><trkpt lat="43.3402085" lon="11.0978842"><ele>204.99999999999997</ele><time>2026-04-11T09:41:12.12Z</time></trkpt><trkpt lat="43.3401788" lon="11.0979624"><ele>205.0</ele><time>2026-04-11T09:41:13.12Z</time></trkpt><trkpt lat="43.3401187" lon="11.0981061"><ele>205.0</ele><time>2026-04-11T09:41:15.12Z</time></trkpt><trkpt lat="43.3400925" lon="11.098196"><ele>205.0</ele><time>2026-04-11T09:41:17.119Z</time></trkpt><trkpt lat="43.3400571" lon="11.09827"><ele>204.99999999999997</ele><time>2026-04-11T09:41:19.12Z</time></trkpt><trkpt lat="43.3400018" lon="11.0983325"><ele>205.0</ele><time>2026-04-11T09:41:21.12Z</time></trkpt><trkpt lat="43.3399724" lon="11.0984177"><ele>204.99999999999997</ele><time>2026-04-11T09:41:24.12Z</time></trkpt><trkpt lat="43.3400388" lon="11.098374"><ele>205.0</ele><time>2026-04-11T09:41:27.119Z</time></trkpt><trkpt lat="43.3400641" lon="11.0982504"><ele>205.0</ele><time>2026-04-11T09:41:29.12Z</time></trkpt><trkpt lat="43.3400936" lon="11.0981654"><ele>205.0</ele><time>2026-04-11T09:41:31.12Z</time></trkpt><trkpt lat="43.3401242" lon="11.0980663"><ele>204.99999999999997</ele><time>2026-04-11T09:41:33.119Z</time></trkpt><trkpt lat="43.340164" lon="11.0979704"><ele>205.0</ele><time>2026-04-11T09:41:35.119Z</time></trkpt><trkpt lat="43.3401939" lon="11.0978814"><ele>205.0</ele><time>2026-04-11T09:41:37.121Z</time></trkpt><trkpt lat="43.3401264" lon="11.0977889"><ele>205.0</ele><time>2026-04-11T09:41:40.12Z</time></trkpt><trkpt lat="43.3400398" lon="11.0978152"><ele>205.0</ele><time>2026-04-11T09:41:42.12Z</time></trkpt><trkpt lat="43.3399675" lon="11.0979039"><ele>205.0</ele><time>2026-04-11T09:41:44.119Z</time></trkpt><trkpt lat="43.3399096" lon="11.0980049"><ele>205.0</ele><time>2026-04-11T09:41:46.12Z</time></trkpt><trkpt lat="43.3398486" lon="11.098139"><ele>204.99999999999997</ele><time>2026-04-11T09:41:48.12Z</time></trkpt><trkpt lat="43.3397942" lon="11.0982488"><ele>205.0</ele><time>2026-04-11T09:41:50.119Z</time></trkpt><trkpt lat="43.3397696" lon="11.0983597"><ele>205.0</ele><time>2026-04-11T09:41:53.119Z</time></trkpt><trkpt lat="43.3397682" lon="11.0984683"><ele>205.0</ele><time>2026-04-11T09:42:29.119Z</time></trkpt><trkpt lat="43.339791" lon="11.0985514"><ele>204.99999999999997</ele><time>2026-04-11T09:42:33.119Z</time></trkpt><trkpt lat="43.3398341" lon="11.0986235"><ele>205.0</ele><time>2026-04-11T09:43:07.119Z</time></trkpt><trkpt lat="43.3398988" lon="11.0986767"><ele>205.0</ele><time>2026-04-11T09:43:09.12Z</time></trkpt><trkpt lat="43.3399708" lon="11.0987289"><ele>205.0</ele><time>2026-04-11T09:43:11.12Z</time></trkpt><trkpt lat="43.340039" lon="11.0988015"><ele>205.0</ele><time>2026-04-11T09:43:13.119Z</time></trkpt><trkpt lat="43.3401028" lon="11.0989215"><ele>205.0</ele><time>2026-04-11T09:43:15.12Z</time></trkpt><trkpt lat="43.3401423" lon="11.0989946"><ele>205.0</ele><time>2026-04-11T09:43:18.121Z</time></trkpt></trkseg></trk></gpx>